Darstellungsparameter: Aktuell verwendete Einstellungen:
Skalierung der Graphiken ... ?
xyx+y,   Skalierungsfaktor:      Skalierung: Modus: x, Faktor: 1
Darstellungszeitraum ... ?
Vom - - bis: - -   Zeitraum: 12.04.2021 - 18.04.2021
Min/Max/Avg-Anzeige ... ?
Zeige MMA aktuell
Zeige MMA Monat
Zeige MMA alles
Zeige --A aktuell
Zeige --A Monat
Zeige --A alles
Keine MMA-Anzeige
MMA:
Keine MMA-Graphiken
MMA-Basis: 12.04.2021 - 18.04.2021
Quicknavigation für Darstellung... ?
Tage:      1T, 2T, 3T, 5T -1T -2T -3T -5T +1T +2T +3T +5T
Wochen: 1W, 2W, 3W -1W -2W -3W +1W +2W +3W
Monate: 1M, 3M, 6M -1M -3M -6M +1M +3M +6M
Jahre:    1J, 3J, 5J, 10J -1J -3J -5J -10J +1J +3J +5J +10J
Nutze für die Darstellung ... ?
Originaldaten oder Mittelwerte auf ...
Stundenbasis Tagesbasis Wochenbasis
Monatsbasis Jahresbasis      Datenbasis: Original-Daten
Darstellen als:
Statistik (Auto) Statistik J:M      Darstellung:
Zur Graphik,    zurück zur Übersicht aller Sensoren.
 
Tabellarische Datenbersicht: ?
 
Sensor: Nr:Datum:Temp:Feuchte:Taupunkt:
Aussen-T/F 1 12-04-2021 00:00:00 3.9 C 95 % 3.17 C
2 12-04-2021 00:05:00 3.9 C 95 % 3.17 C
3 12-04-2021 00:10:00 3.9 C 95 % 3.17 C
4 12-04-2021 00:15:00 4 C 95 % 3.27 C
5 12-04-2021 00:20:00 4 C 96 % 3.42 C
6 12-04-2021 00:25:00 4 C 96 % 3.42 C
7 12-04-2021 00:30:00 4 C 96 % 3.42 C
8 12-04-2021 00:35:00 4 C 96 % 3.42 C
9 12-04-2021 00:40:00 4 C 96 % 3.42 C
10 12-04-2021 00:45:00 4 C 96 % 3.42 C
11 12-04-2021 00:50:00 4 C 96 % 3.42 C
12 12-04-2021 00:55:00 4 C 96 % 3.42 C
13 12-04-2021 01:00:00 3.9 C 96 % 3.32 C
14 12-04-2021 01:05:00 3.9 C 96 % 3.32 C
15 12-04-2021 01:10:00 3.9 C 96 % 3.32 C
16 12-04-2021 01:15:00 3.9 C 96 % 3.32 C
17 12-04-2021 01:20:00 3.8 C 96 % 3.22 C
18 12-04-2021 01:25:00 3.8 C 96 % 3.22 C
19 12-04-2021 01:30:00 3.8 C 96 % 3.22 C
20 12-04-2021 01:35:00 3.8 C 96 % 3.22 C
21 12-04-2021 01:40:00 3.8 C 96 % 3.22 C
22 12-04-2021 01:45:00 3.8 C 96 % 3.22 C
23 12-04-2021 01:50:00 3.8 C 96 % 3.22 C
24 12-04-2021 01:55:00 3.7 C 96 % 3.12 C
25 12-04-2021 02:00:00 3.7 C 96 % 3.12 C
Sensor: Nr:Datum:Temp:Feuchte:Taupunkt:
Aussen-T/F 26 12-04-2021 02:05:00 3.6 C 96 % 3.02 C
27 12-04-2021 02:10:00 3.6 C 96 % 3.02 C
28 12-04-2021 02:15:00 3.5 C 96 % 2.92 C
29 12-04-2021 02:20:00 3.4 C 95 % 2.68 C
30 12-04-2021 02:25:00 3.3 C 95 % 2.58 C
31 12-04-2021 02:30:00 3.2 C 95 % 2.48 C
32 12-04-2021 02:35:00 3.1 C 95 % 2.38 C
33 12-04-2021 02:40:00 3.1 C 95 % 2.38 C
34 12-04-2021 02:45:00 3 C 95 % 2.28 C
35 12-04-2021 02:50:00 2.9 C 95 % 2.18 C
36 12-04-2021 02:55:00 2.9 C 95 % 2.18 C
37 12-04-2021 03:00:00 2.8 C 96 % 2.23 C
38 12-04-2021 03:05:00 2.8 C 96 % 2.23 C
39 12-04-2021 03:10:00 2.8 C 95 % 2.08 C
40 12-04-2021 03:15:00 2.7 C 95 % 1.98 C
41 12-04-2021 03:20:00 2.7 C 96 % 2.13 C
42 12-04-2021 03:25:00 2.7 C 96 % 2.13 C
43 12-04-2021 03:30:00 2.8 C 96 % 2.23 C
44 12-04-2021 03:35:00 2.8 C 96 % 2.23 C
45 12-04-2021 03:40:00 2.8 C 96 % 2.23 C
46 12-04-2021 03:45:00 2.7 C 96 % 2.13 C
47 12-04-2021 03:50:00 2.7 C 96 % 2.13 C
48 12-04-2021 03:55:00 2.6 C 95 % 1.88 C
49 12-04-2021 04:00:00 2.6 C 95 % 1.88 C
50 12-04-2021 04:05:00 2.6 C 95 % 1.88 C
Sensor: Nr:Datum:Temp:Feuchte:Taupunkt:
Aussen-T/F 51 12-04-2021 04:10:00 2.4 C 95 % 1.68 C
52 12-04-2021 04:15:00 2.4 C 95 % 1.68 C
53 12-04-2021 04:20:00 2.4 C 95 % 1.68 C
54 12-04-2021 04:25:00 2.3 C 95 % 1.58 C
55 12-04-2021 04:30:00 2.3 C 95 % 1.58 C
56 12-04-2021 04:35:00 2.3 C 95 % 1.58 C
57 12-04-2021 04:40:00 2.2 C 95 % 1.48 C
58 12-04-2021 04:45:00 2.1 C 95 % 1.38 C
59 12-04-2021 04:50:00 2 C 95 % 1.29 C
60 12-04-2021 04:55:00 2 C 95 % 1.29 C
61 12-04-2021 05:00:00 1.9 C 95 % 1.19 C
62 12-04-2021 05:05:00 1.9 C 95 % 1.19 C
63 12-04-2021 05:10:00 1.9 C 95 % 1.19 C
64 12-04-2021 05:15:00 1.9 C 95 % 1.19 C
65 12-04-2021 05:20:00 1.9 C 95 % 1.19 C
66 12-04-2021 05:25:00 1.9 C 95 % 1.19 C
67 12-04-2021 05:30:00 1.9 C 95 % 1.19 C
68 12-04-2021 05:35:00 1.8 C 95 % 1.09 C
69 12-04-2021 05:40:00 1.8 C 95 % 1.09 C
70 12-04-2021 05:45:00 1.8 C 95 % 1.09 C
71 12-04-2021 05:50:00 1.8 C 95 % 1.09 C
72 12-04-2021 05:55:00 1.8 C 95 % 1.09 C
73 12-04-2021 06:00:00 1.8 C 95 % 1.09 C
74 12-04-2021 06:05:00 1.7 C 95 % 0.99 C
75 12-04-2021 06:10:00 1.7 C 95 % 0.99 C
Sensor: Nr:Datum:Temp:Feuchte:Taupunkt:
Aussen-T/F 76 12-04-2021 06:15:00 1.7 C 95 % 0.99 C
77 12-04-2021 06:20:00 1.7 C 95 % 0.99 C
78 12-04-2021 06:25:00 1.7 C 95 % 0.99 C
79 12-04-2021 06:30:00 1.7 C 95 % 0.99 C
80 12-04-2021 06:35:00 1.7 C 96 % 1.13 C
81 12-04-2021 06:40:00 1.8 C 96 % 1.23 C
82 12-04-2021 06:45:00 1.8 C 96 % 1.23 C
83 12-04-2021 06:50:00 1.8 C 96 % 1.23 C
84 12-04-2021 06:55:00 1.8 C 96 % 1.23 C
85 12-04-2021 07:00:00 1.8 C 96 % 1.23 C
86 12-04-2021 07:05:00 1.8 C 96 % 1.23 C
87 12-04-2021 07:10:00 1.9 C 96 % 1.33 C
88 12-04-2021 07:15:00 1.9 C 96 % 1.33 C
89 12-04-2021 07:20:00 1.9 C 96 % 1.33 C
90 12-04-2021 07:25:00 1.9 C 96 % 1.33 C
91 12-04-2021 07:30:00 2.1 C 96 % 1.53 C
92 12-04-2021 07:35:00 2.1 C 96 % 1.53 C
93 12-04-2021 07:40:00 2.2 C 96 % 1.63 C
94 12-04-2021 07:45:00 2.2 C 96 % 1.63 C
95 12-04-2021 07:50:00 2.3 C 96 % 1.73 C
96 12-04-2021 07:55:00 2.3 C 96 % 1.73 C
97 12-04-2021 08:00:00 2.3 C 96 % 1.73 C
98 12-04-2021 08:05:00 2.3 C 96 % 1.73 C
99 12-04-2021 08:10:00 2.3 C 96 % 1.73 C
100 12-04-2021 08:15:00 2.3 C 96 % 1.73 C
Sensor: Nr:Datum:Temp:Feuchte:Taupunkt:
Aussen-T/F 101 12-04-2021 08:20:00 2.3 C 96 % 1.73 C
102 12-04-2021 08:25:00 2.2 C 96 % 1.63 C
103 12-04-2021 08:30:00 2.2 C 96 % 1.63 C
104 12-04-2021 08:35:00 2.2 C 96 % 1.63 C
105 12-04-2021 08:40:00 2.2 C 96 % 1.63 C
106 12-04-2021 08:45:00 2.3 C 96 % 1.73 C
107 12-04-2021 08:50:00 2.3 C 96 % 1.73 C
108 12-04-2021 08:55:00 2.5 C 96 % 1.93 C
109 12-04-2021 09:00:00 2.7 C 96 % 2.13 C
110 12-04-2021 09:05:00 2.8 C 96 % 2.23 C
111 12-04-2021 09:10:00 2.9 C 96 % 2.33 C
112 12-04-2021 09:15:00 3.1 C 96 % 2.53 C
113 12-04-2021 09:20:00 3.2 C 96 % 2.63 C
114 12-04-2021 09:25:00 3.3 C 96 % 2.72 C
115 12-04-2021 09:30:00 3.4 C 96 % 2.82 C
116 12-04-2021 09:35:00 3.5 C 96 % 2.92 C
117 12-04-2021 09:40:00 3.6 C 95 % 2.88 C
118 12-04-2021 09:45:00 3.7 C 95 % 2.98 C
119 12-04-2021 09:50:00 3.8 C 93 % 2.77 C
120 12-04-2021 09:55:00 3.9 C 92 % 2.72 C
121 12-04-2021 10:00:00 4 C 91 % 2.67 C
122 12-04-2021 10:05:00 4.2 C 90 % 2.71 C
123 12-04-2021 10:10:00 4.2 C 89 % 2.55 C
124 12-04-2021 10:15:00 4.4 C 88 % 2.59 C
125 12-04-2021 10:20:00 4.5 C 86 % 2.37 C
Sensor: Nr:Datum:Temp:Feuchte:Taupunkt:
Aussen-T/F 126 12-04-2021 10:25:00 4.6 C 86 % 2.47 C
127 12-04-2021 10:30:00 4.7 C 83 % 2.07 C
128 12-04-2021 10:35:00 4.8 C 84 % 2.33 C
129 12-04-2021 10:40:00 4.9 C 83 % 2.26 C
130 12-04-2021 10:45:00 5 C 83 % 2.36 C
131 12-04-2021 10:50:00 5.1 C 80 % 1.94 C
132 12-04-2021 10:55:00 5.1 C 81 % 2.12 C
133 12-04-2021 11:00:00 5.2 C 81 % 2.21 C
134 12-04-2021 11:05:00 5.1 C 82 % 2.29 C
135 12-04-2021 11:10:00 5.2 C 81 % 2.21 C
136 12-04-2021 11:15:00 5.2 C 80 % 2.04 C
137 12-04-2021 11:20:00 5.3 C 80 % 2.14 C
138 12-04-2021 11:25:00 5.3 C 80 % 2.14 C
139 12-04-2021 11:30:00 5.4 C 79 % 2.06 C
140 12-04-2021 11:35:00 5.6 C 79 % 2.25 C
141 12-04-2021 11:40:00 5.7 C 80 % 2.53 C
142 12-04-2021 11:45:00 5.7 C 77 % 1.99 C
143 12-04-2021 11:50:00 5.7 C 77 % 1.99 C
144 12-04-2021 11:55:00 5.7 C 77 % 1.99 C
145 12-04-2021 12:00:00 5.9 C 76 % 2 C
146 12-04-2021 12:05:00 6.1 C 74 % 1.82 C
147 12-04-2021 12:10:00 6.2 C 74 % 1.92 C
148 12-04-2021 12:15:00 6.6 C 76 % 2.68 C
149 12-04-2021 12:20:00 6.7 C 70 % 1.63 C
150 12-04-2021 12:25:00 6.8 C 68 % 1.32 C
Sensor: Nr:Datum:Temp:Feuchte:Taupunkt:
Aussen-T/F 151 12-04-2021 12:30:00 7.1 C 71 % 2.21 C
152 12-04-2021 12:35:00 7.5 C 70 % 2.39 C
153 12-04-2021 12:40:00 7.8 C 71 % 2.88 C
154 12-04-2021 12:45:00 7.8 C 70 % 2.68 C
155 12-04-2021 12:50:00 7.5 C 69 % 2.19 C
156 12-04-2021 12:55:00 6.6 C 76 % 2.68 C
157 12-04-2021 13:00:00 5.5 C 80 % 2.33 C
158 12-04-2021 13:05:00 4.9 C 84 % 2.43 C
159 12-04-2021 13:10:00 4.7 C 87 % 2.73 C
160 12-04-2021 13:15:00 4.7 C 88 % 2.89 C
161 12-04-2021 13:20:00 4.8 C 89 % 3.14 C
162 12-04-2021 13:25:00 5.2 C 90 % 3.7 C
163 12-04-2021 13:30:00 5.4 C 90 % 3.89 C
164 12-04-2021 13:35:00 5.5 C 89 % 3.84 C
165 12-04-2021 13:40:00 5.3 C 84 % 2.82 C
166 12-04-2021 13:45:00 5.2 C 84 % 2.72 C
167 12-04-2021 13:50:00 5.1 C 84 % 2.63 C
168 12-04-2021 13:55:00 4.8 C 83 % 2.16 C
169 12-04-2021 14:00:00 4.7 C 85 % 2.4 C
170 12-04-2021 14:05:00 4.9 C 87 % 2.92 C
171 12-04-2021 14:10:00 5.1 C 88 % 3.28 C
172 12-04-2021 14:15:00 5.4 C 88 % 3.58 C
173 12-04-2021 14:20:00 5.7 C 85 % 3.38 C
174 12-04-2021 14:25:00 5.9 C 85 % 3.58 C
175 12-04-2021 14:30:00 6.2 C 81 % 3.19 C
Sensor: Nr:Datum:Temp:Feuchte:Taupunkt:
Aussen-T/F 176 12-04-2021 14:35:00 6.5 C 79 % 3.13 C
177 12-04-2021 14:40:00 7 C 77 % 3.25 C
178 12-04-2021 14:45:00 7.4 C 75 % 3.27 C
179 12-04-2021 14:50:00 7.6 C 73 % 3.08 C
180 12-04-2021 14:55:00 8 C 71 % 3.07 C
181 12-04-2021 15:00:00 8.3 C 71 % 3.36 C
182 12-04-2021 15:05:00 8.4 C 68 % 2.85 C
183 12-04-2021 15:10:00 8.2 C 68 % 2.66 C
184 12-04-2021 15:15:00 7.9 C 69 % 2.57 C
185 12-04-2021 15:20:00 7.6 C 71 % 2.69 C
186 12-04-2021 15:25:00 7.3 C 71 % 2.4 C
187 12-04-2021 15:30:00 7 C 75 % 2.88 C
188 12-04-2021 15:35:00 6.7 C 78 % 3.14 C
189 12-04-2021 15:40:00 6.6 C 81 % 3.58 C
190 12-04-2021 15:45:00 6.6 C 83 % 3.92 C
191 12-04-2021 15:50:00 6.4 C 82 % 3.56 C
192 12-04-2021 15:55:00 5.9 C 78 % 2.37 C
193 12-04-2021 16:00:00 5.3 C 78 % 1.78 C
194 12-04-2021 16:05:00 4.8 C 81 % 1.82 C
195 12-04-2021 16:10:00 4.7 C 84 % 2.23 C
196 12-04-2021 16:15:00 4.7 C 86 % 2.56 C
197 12-04-2021 16:20:00 4.7 C 87 % 2.73 C
198 12-04-2021 16:25:00 4.9 C 88 % 3.08 C
199 12-04-2021 16:30:00 5.6 C 88 % 3.77 C
200 12-04-2021 16:35:00 6.1 C 83 % 3.44 C
Sensor: Nr:Datum:Temp:Feuchte:Taupunkt:
Aussen-T/F 201 12-04-2021 16:40:00 6.3 C 82 % 3.46 C
202 12-04-2021 16:45:00 6.4 C 82 % 3.56 C
203 12-04-2021 16:50:00 6.4 C 80 % 3.21 C
204 12-04-2021 16:55:00 6.3 C 76 % 2.39 C
205 12-04-2021 17:00:00 6.3 C 77 % 2.57 C
206 12-04-2021 17:05:00 6.3 C 77 % 2.57 C
207 12-04-2021 17:10:00 6.2 C 73 % 1.73 C
208 12-04-2021 17:15:00 6.1 C 74 % 1.82 C
209 12-04-2021 17:20:00 5.9 C 74 % 1.63 C
210 12-04-2021 17:25:00 5.8 C 76 % 1.91 C
211 12-04-2021 17:30:00 5.8 C 76 % 1.91 C
212 12-04-2021 17:35:00 5.8 C 78 % 2.27 C
213 12-04-2021 17:40:00 5.9 C 77 % 2.19 C
214 12-04-2021 17:45:00 6 C 77 % 2.28 C
215 12-04-2021 17:50:00 6.1 C 78 % 2.56 C
216 12-04-2021 17:55:00 6.2 C 76 % 2.29 C
217 12-04-2021 18:00:00 6.2 C 77 % 2.48 C
218 12-04-2021 18:05:00 6.3 C 74 % 2.02 C
219 12-04-2021 18:10:00 6.3 C 74 % 2.02 C
220 12-04-2021 18:15:00 6.5 C 71 % 1.63 C
221 12-04-2021 18:20:00 6.8 C 73 % 2.31 C
222 12-04-2021 18:25:00 7.3 C 72 % 2.6 C
223 12-04-2021 18:30:00 7.8 C 69 % 2.48 C
224 12-04-2021 18:35:00 7.9 C 67 % 2.16 C
225 12-04-2021 18:40:00 7.9 C 67 % 2.16 C
Sensor: Nr:Datum:Temp:Feuchte:Taupunkt:
Aussen-T/F 226 12-04-2021 18:45:00 7.8 C 67 % 2.07 C
227 12-04-2021 18:50:00 7.7 C 68 % 2.18 C
228 12-04-2021 18:55:00 7.8 C 67 % 2.07 C
229 12-04-2021 19:00:00 7.8 C 68 % 2.27 C
230 12-04-2021 19:05:00 7.7 C 66 % 1.76 C
231 12-04-2021 19:10:00 7.3 C 67 % 1.59 C
232 12-04-2021 19:15:00 6.9 C 69 % 1.62 C
233 12-04-2021 19:20:00 6.7 C 69 % 1.43 C
234 12-04-2021 19:25:00 6.7 C 70 % 1.63 C
235 12-04-2021 19:30:00 6.6 C 68 % 1.13 C
236 12-04-2021 19:35:00 6.6 C 69 % 1.33 C
237 12-04-2021 19:40:00 6.5 C 69 % 1.23 C
238 12-04-2021 19:45:00 6.4 C 70 % 1.34 C
239 12-04-2021 19:50:00 6.4 C 71 % 1.54 C
240 12-04-2021 19:55:00 6.4 C 71 % 1.54 C
241 12-04-2021 20:00:00 6.3 C 70 % 1.24 C
242 12-04-2021 20:05:00 6.3 C 72 % 1.63 C
243 12-04-2021 20:10:00 6.2 C 74 % 1.92 C
244 12-04-2021 20:15:00 5.9 C 75 % 1.82 C
245 12-04-2021 20:20:00 5.6 C 76 % 1.71 C
246 12-04-2021 20:25:00 5.3 C 78 % 1.78 C
247 12-04-2021 20:30:00 4.9 C 79 % 1.57 C
248 12-04-2021 20:35:00 4.7 C 81 % 1.73 C
249 12-04-2021 20:40:00 4.4 C 82 % 1.6 C
250 12-04-2021 20:45:00 4.2 C 83 % 1.58 C
Sensor: Nr:Datum:Temp:Feuchte:Taupunkt:
Aussen-T/F 251 12-04-2021 20:50:00 4 C 84 % 1.55 C
252 12-04-2021 20:55:00 3.8 C 84 % 1.35 C
253 12-04-2021 21:00:00 3.6 C 85 % 1.32 C
254 12-04-2021 21:05:00 3.4 C 85 % 1.12 C
255 12-04-2021 21:10:00 3.3 C 85 % 1.03 C
256 12-04-2021 21:15:00 3.2 C 86 % 1.09 C
257 12-04-2021 21:20:00 3.2 C 86 % 1.09 C
258 12-04-2021 21:25:00 3.1 C 86 % 0.99 C
259 12-04-2021 21:30:00 2.9 C 87 % 0.96 C
260 12-04-2021 21:35:00 2.9 C 87 % 0.96 C
261 12-04-2021 21:40:00 2.8 C 87 % 0.86 C
262 12-04-2021 21:45:00 2.7 C 88 % 0.92 C
263 12-04-2021 21:50:00 2.7 C 88 % 0.92 C
264 12-04-2021 21:55:00 2.6 C 88 % 0.82 C
265 12-04-2021 22:00:00 2.4 C 89 % 0.78 C
266 12-04-2021 22:05:00 2.4 C 88 % 0.62 C
267 12-04-2021 22:10:00 2.3 C 89 % 0.68 C
268 12-04-2021 22:15:00 2.2 C 89 % 0.58 C
269 12-04-2021 22:20:00 2.2 C 89 % 0.58 C
270 12-04-2021 22:25:00 2.1 C 89 % 0.48 C
271 12-04-2021 22:30:00 2 C 89 % 0.38 C
272 12-04-2021 22:35:00 1.9 C 90 % 0.44 C
273 12-04-2021 22:40:00 1.8 C 90 % 0.34 C
274 12-04-2021 22:45:00 1.8 C 90 % 0.34 C
275 12-04-2021 22:50:00 1.8 C 91 % 0.49 C
Sensor: Nr:Datum:Temp:Feuchte:Taupunkt:
Aussen-T/F 276 12-04-2021 22:55:00 1.8 C 91 % 0.49 C
277 12-04-2021 23:00:00 1.8 C 91 % 0.49 C
278 12-04-2021 23:05:00 1.8 C 91 % 0.49 C
279 12-04-2021 23:10:00 1.8 C 91 % 0.49 C
280 12-04-2021 23:15:00 1.7 C 91 % 0.39 C
281 12-04-2021 23:20:00 1.6 C 91 % 0.29 C
282 12-04-2021 23:25:00 1.4 C 91 % 0.1 C
283 12-04-2021 23:30:00 1.3 C 91 % 0 C
284 12-04-2021 23:35:00 1.2 C 91 % -0.1 C
285 12-04-2021 23:40:00 1.2 C 91 % -0.1 C
286 12-04-2021 23:45:00 1.1 C 92 % -0.05 C
287 12-04-2021 23:50:00 1.1 C 92 % -0.05 C
288 12-04-2021 23:55:00 1 C 92 % -0.15 C
289 13-04-2021 00:00:00 0.8 C 92 % -0.35 C
290 13-04-2021 00:05:00 0.7 C 92 % -0.45 C
291 13-04-2021 00:10:00 0.7 C 92 % -0.45 C
292 13-04-2021 00:15:00 0.6 C 92 % -0.55 C
293 13-04-2021 00:20:00 0.4 C 92 % -0.74 C
294 13-04-2021 00:25:00 0.4 C 92 % -0.74 C
295 13-04-2021 00:30:00 0.3 C 92 % -0.84 C
296 13-04-2021 00:35:00 0.3 C 93 % -0.7 C
297 13-04-2021 00:40:00 0.3 C 93 % -0.7 C
298 13-04-2021 00:45:00 0.3 C 93 % -0.7 C
299 13-04-2021 00:50:00 0.2 C 93 % -0.79 C
300 13-04-2021 00:55:00 0.2 C 93 % -0.79 C
Sensor: Nr:Datum:Temp:Feuchte:Taupunkt:
Aussen-T/F 301 13-04-2021 01:00:00 0.1 C 93 % -0.89 C
302 13-04-2021 01:05:00 0.1 C 93 % -0.89 C
303 13-04-2021 01:10:00 -0.1 C 93 % -1.09 C
304 13-04-2021 01:15:00 -0.1 C 93 % -1.09 C
305 13-04-2021 01:20:00 -0.1 C 93 % -1.09 C
306 13-04-2021 01:25:00 -0.1 C 93 % -1.09 C
307 13-04-2021 01:30:00 -0.2 C 93 % -1.19 C
308 13-04-2021 01:35:00 -0.2 C 93 % -1.19 C
309 13-04-2021 01:40:00 -0.3 C 93 % -1.29 C
310 13-04-2021 01:45:00 -0.3 C 94 % -1.15 C
311 13-04-2021 01:50:00 -0.3 C 94 % -1.15 C
312 13-04-2021 01:55:00 -0.4 C 94 % -1.25 C
313 13-04-2021 02:00:00 -0.3 C 94 % -1.15 C
314 13-04-2021 02:05:00 -0.4 C 94 % -1.25 C
315 13-04-2021 02:10:00 -0.4 C 94 % -1.25 C
316 13-04-2021 02:15:00 -0.4 C 94 % -1.25 C
317 13-04-2021 02:20:00 -0.4 C 94 % -1.25 C
318 13-04-2021 02:25:00 -0.5 C 94 % -1.34 C
319 13-04-2021 02:30:00 -0.5 C 94 % -1.34 C
320 13-04-2021 02:35:00 -0.6 C 94 % -1.44 C
321 13-04-2021 02:40:00 -0.6 C 94 % -1.44 C
322 13-04-2021 02:45:00 -0.7 C 94 % -1.54 C
323 13-04-2021 02:50:00 -0.7 C 94 % -1.54 C
324 13-04-2021 02:55:00 -0.7 C 94 % -1.54 C
325 13-04-2021 03:00:00 -0.8 C 94 % -1.64 C
Sensor: Nr:Datum:Temp:Feuchte:Taupunkt:
Aussen-T/F 326 13-04-2021 03:05:00 -0.8 C 94 % -1.64 C
327 13-04-2021 03:10:00 -0.9 C 94 % -1.74 C
328 13-04-2021 03:15:00 -0.9 C 94 % -1.74 C
329 13-04-2021 03:20:00 -0.9 C 94 % -1.74 C
330 13-04-2021 03:25:00 -1 C 94 % -1.84 C
331 13-04-2021 03:30:00 -1.1 C 94 % -1.94 C
332 13-04-2021 03:35:00 -1.1 C 94 % -1.94 C
333 13-04-2021 03:40:00 -1.1 C 94 % -1.94 C
334 13-04-2021 03:45:00 -1.1 C 94 % -1.94 C
335 13-04-2021 03:50:00 -1.1 C 94 % -1.94 C
336 13-04-2021 03:55:00 -1.2 C 94 % -2.04 C
337 13-04-2021 04:00:00 -1.2 C 94 % -2.04 C
338 13-04-2021 04:05:00 -1.2 C 94 % -2.04 C
339 13-04-2021 04:10:00 -1.2 C 95 % -1.9 C
340 13-04-2021 04:15:00 -1.2 C 95 % -1.9 C
341 13-04-2021 04:20:00 -1.2 C 95 % -1.9 C
342 13-04-2021 04:25:00 -1.3 C 95 % -2 C
343 13-04-2021 04:30:00 -1.3 C 95 % -2 C
344 13-04-2021 04:35:00 -1.3 C 95 % -2 C
345 13-04-2021 04:40:00 -1.3 C 95 % -2 C
346 13-04-2021 04:45:00 -1.3 C 95 % -2 C
347 13-04-2021 04:50:00 -1.3 C 95 % -2 C
348 13-04-2021 04:55:00 -1.3 C 95 % -2 C
349 13-04-2021 05:00:00 -1.3 C 95 % -2 C
350 13-04-2021 05:05:00 -1.3 C 95 % -2 C
Sensor: Nr:Datum:Temp:Feuchte:Taupunkt:
Aussen-T/F 351 13-04-2021 05:10:00 -1.3 C 95 % -2 C
352 13-04-2021 05:15:00 -1.3 C 95 % -2 C
353 13-04-2021 05:20:00 -1.3 C 95 % -2 C
354 13-04-2021 05:25:00 -1.4 C 95 % -2.1 C
355 13-04-2021 05:30:00 -1.4 C 95 % -2.1 C
356 13-04-2021 05:35:00 -1.4 C 95 % -2.1 C
357 13-04-2021 05:40:00 -1.4 C 95 % -2.1 C
358 13-04-2021 05:45:00 -1.4 C 95 % -2.1 C
359 13-04-2021 05:50:00 -1.4 C 95 % -2.1 C
360 13-04-2021 05:55:00 -1.3 C 95 % -2 C
361 13-04-2021 06:00:00 -1.4 C 95 % -2.1 C
362 13-04-2021 06:05:00 -1.4 C 95 % -2.1 C
363 13-04-2021 06:10:00 -1.4 C 95 % -2.1 C
364 13-04-2021 06:15:00 -1.4 C 95 % -2.1 C
365 13-04-2021 06:20:00 -1.4 C 95 % -2.1 C
366 13-04-2021 06:25:00 -1.3 C 95 % -2 C
367 13-04-2021 06:30:00 -1.3 C 95 % -2 C
368 13-04-2021 06:35:00 -1.3 C 95 % -2 C
369 13-04-2021 06:40:00 -1.4 C 95 % -2.1 C
370 13-04-2021 06:45:00 -1.4 C 95 % -2.1 C
371 13-04-2021 06:50:00 -1.4 C 95 % -2.1 C
372 13-04-2021 06:55:00 -1.5 C 95 % -2.19 C
373 13-04-2021 07:00:00 -1.5 C 95 % -2.19 C
374 13-04-2021 07:05:00 -1.5 C 95 % -2.19 C
375 13-04-2021 07:10:00 -1.4 C 95 % -2.1 C
Sensor: Nr:Datum:Temp:Feuchte:Taupunkt:
Aussen-T/F 376 13-04-2021 07:15:00 -1.4 C 95 % -2.1 C
377 13-04-2021 07:20:00 -1.3 C 95 % -2 C
378 13-04-2021 07:25:00 -1.3 C 96 % -1.85 C
379 13-04-2021 07:30:00 -1.2 C 96 % -1.75 C
380 13-04-2021 07:35:00 -1.2 C 96 % -1.75 C
381 13-04-2021 07:40:00 -1.1 C 96 % -1.66 C
382 13-04-2021 07:45:00 -1.1 C 96 % -1.66 C
383 13-04-2021 07:50:00 -1 C 95 % -1.7 C
384 13-04-2021 07:55:00 -1 C 95 % -1.7 C
385 13-04-2021 08:00:00 -0.9 C 96 % -1.46 C
386 13-04-2021 08:05:00 -0.8 C 96 % -1.36 C
387 13-04-2021 08:10:00 -0.7 C 96 % -1.26 C
388 13-04-2021 08:15:00 -0.5 C 96 % -1.06 C
389 13-04-2021 08:20:00 -0.3 C 96 % -0.86 C
390 13-04-2021 08:25:00 -0.2 C 96 % -0.76 C
391 13-04-2021 08:30:00 -0.1 C 96 % -0.66 C
392 13-04-2021 08:35:00 -0.1 C 96 % -0.66 C
393 13-04-2021 08:40:00 0 C 96 % -0.56 C
394 13-04-2021 08:45:00 0.1 C 96 % -0.46 C
395 13-04-2021 08:50:00 0.2 C 96 % -0.36 C
396 13-04-2021 08:55:00 0.3 C 96 % -0.26 C
397 13-04-2021 09:00:00 0.4 C 96 % -0.16 C
398 13-04-2021 09:05:00 0.4 C 96 % -0.16 C
399 13-04-2021 09:10:00 0.6 C 96 % 0.04 C
400 13-04-2021 09:15:00 0.7 C 96 % 0.14 C
Sensor: Nr:Datum:Temp:Feuchte:Taupunkt:
Aussen-T/F 401 13-04-2021 09:20:00 0.7 C 96 % 0.14 C
402 13-04-2021 09:25:00 0.8 C 96 % 0.24 C
403 13-04-2021 09:30:00 0.9 C 96 % 0.34 C
404 13-04-2021 09:35:00 1.1 C 96 % 0.54 C
405 13-04-2021 09:40:00 1.2 C 96 % 0.63 C
406 13-04-2021 09:45:00 1.3 C 96 % 0.73 C
407 13-04-2021 09:50:00 1.5 C 96 % 0.93 C
408 13-04-2021 09:55:00 1.7 C 96 % 1.13 C
409 13-04-2021 10:00:00 1.9 C 96 % 1.33 C
410 13-04-2021 10:05:00 2.1 C 96 % 1.53 C
411 13-04-2021 10:10:00 2.1 C 95 % 1.38 C
412 13-04-2021 10:15:00 2.2 C 95 % 1.48 C
413 13-04-2021 10:20:00 2.3 C 95 % 1.58 C
414 13-04-2021 10:25:00 2.5 C 94 % 1.63 C
415 13-04-2021 10:30:00 2.7 C 94 % 1.83 C
416 13-04-2021 10:35:00 2.9 C 93 % 1.88 C
417 13-04-2021 10:40:00 3.2 C 92 % 2.03 C
418 13-04-2021 10:45:00 3.4 C 91 % 2.07 C
419 13-04-2021 10:50:00 3.6 C 90 % 2.12 C
420 13-04-2021 10:55:00 3.9 C 89 % 2.26 C
421 13-04-2021 11:00:00 4.3 C 90 % 2.81 C
422 13-04-2021 11:05:00 4.6 C 87 % 2.63 C
423 13-04-2021 11:10:00 4.7 C 86 % 2.56 C
424 13-04-2021 11:15:00 4.7 C 84 % 2.23 C
425 13-04-2021 11:20:00 4.7 C 84 % 2.23 C
Sensor: Nr:Datum:Temp:Feuchte:Taupunkt:
Aussen-T/F 426 13-04-2021 11:25:00 4.7 C 84 % 2.23 C
427 13-04-2021 11:30:00 4.8 C 84 % 2.33 C
428 13-04-2021 11:35:00 4.9 C 83 % 2.26 C
429 13-04-2021 11:40:00 5 C 82 % 2.19 C
430 13-04-2021 11:45:00 5.2 C 82 % 2.39 C
431 13-04-2021 11:50:00 5.2 C 82 % 2.39 C
432 13-04-2021 11:55:00 5.3 C 82 % 2.48 C
433 13-04-2021 12:00:00 5.5 C 82 % 2.68 C
434 13-04-2021 12:05:00 5.6 C 81 % 2.6 C
435 13-04-2021 12:10:00 5.6 C 80 % 2.43 C
436 13-04-2021 12:15:00 5.6 C 80 % 2.43 C
437 13-04-2021 12:20:00 5.6 C 80 % 2.43 C
438 13-04-2021 12:25:00 5.4 C 79 % 2.06 C
439 13-04-2021 12:30:00 5.4 C 78 % 1.88 C
440 13-04-2021 12:35:00 5.4 C 77 % 1.7 C
441 13-04-2021 12:40:00 5.5 C 77 % 1.8 C
442 13-04-2021 12:45:00 5.7 C 79 % 2.35 C
443 13-04-2021 12:50:00 5.8 C 78 % 2.27 C
444 13-04-2021 12:55:00 5.9 C 77 % 2.19 C
445 13-04-2021 13:00:00 5.9 C 77 % 2.19 C
446 13-04-2021 13:05:00 5.9 C 78 % 2.37 C
447 13-04-2021 13:10:00 6.1 C 78 % 2.56 C
448 13-04-2021 13:15:00 6.3 C 77 % 2.57 C
449 13-04-2021 13:20:00 6.3 C 75 % 2.2 C
450 13-04-2021 13:25:00 6.3 C 75 % 2.2 C
Sensor: Nr:Datum:Temp:Feuchte:Taupunkt:
Aussen-T/F 451 13-04-2021 13:30:00 6.3 C 72 % 1.63 C
452 13-04-2021 13:35:00 6.4 C 72 % 1.73 C
453 13-04-2021 13:40:00 6.5 C 71 % 1.63 C
454 13-04-2021 13:45:00 6.6 C 70 % 1.53 C
455 13-04-2021 13:50:00 6.7 C 70 % 1.63 C
456 13-04-2021 13:55:00 6.9 C 67 % 1.21 C
457 13-04-2021 14:00:00 7 C 66 % 1.09 C
458 13-04-2021 14:05:00 7.1 C 66 % 1.19 C
459 13-04-2021 14:10:00 7.1 C 67 % 1.4 C
460 13-04-2021 14:15:00 7.1 C 66 % 1.19 C
461 13-04-2021 14:20:00 7.2 C 68 % 1.7 C
462 13-04-2021 14:25:00 7.4 C 66 % 1.48 C
463 13-04-2021 14:30:00 7.5 C 68 % 1.99 C
464 13-04-2021 14:35:00 7.4 C 66 % 1.48 C
465 13-04-2021 14:40:00 7.5 C 68 % 1.99 C
466 13-04-2021 14:45:00 7.8 C 68 % 2.27 C
467 13-04-2021 14:50:00 8.2 C 66 % 2.24 C
468 13-04-2021 14:55:00 8.4 C 67 % 2.64 C
469 13-04-2021 15:00:00 8.7 C 64 % 2.28 C
470 13-04-2021 15:05:00 8.5 C 62 % 1.65 C
471 13-04-2021 15:10:00 8.4 C 59 % 0.87 C
472 13-04-2021 15:15:00 8.4 C 61 % 1.33 C
473 13-04-2021 15:20:00 8.4 C 59 % 0.87 C
474 13-04-2021 15:25:00 8.4 C 60 % 1.1 C
475 13-04-2021 15:30:00 8.6 C 60 % 1.29 C
Sensor: Nr:Datum:Temp:Feuchte:Taupunkt:
Aussen-T/F 476 13-04-2021 15:35:00 8.8 C 56 % 0.52 C
477 13-04-2021 15:40:00 9 C 58 % 1.19 C
478 13-04-2021 15:45:00 9.2 C 56 % 0.89 C
479 13-04-2021 15:50:00 9.3 C 56 % 0.99 C
480 13-04-2021 15:55:00 9.4 C 56 % 1.08 C
481 13-04-2021 16:00:00 9.5 C 57 % 1.42 C
482 13-04-2021 16:05:00 9.6 C 54 % 0.76 C
483 13-04-2021 16:10:00 9.8 C 51 % 0.16 C
484 13-04-2021 16:15:00 9.8 C 53 % 0.69 C
485 13-04-2021 16:20:00 9.8 C 52 % 0.43 C
486 13-04-2021 16:25:00 10.1 C 51 % 0.44 C
487 13-04-2021 16:30:00 10.1 C 51 % 0.44 C
488 13-04-2021 16:35:00 10.1 C 53 % 0.97 C
489 13-04-2021 16:40:00 10.1 C 53 % 0.97 C
490 13-04-2021 16:45:00 10.5 C 53 % 1.34 C
491 13-04-2021 16:50:00 10.7 C 50 % 0.72 C
492 13-04-2021 16:55:00 10.4 C 50 % 0.44 C
493 13-04-2021 17:00:00 9.9 C 52 % 0.52 C
494 13-04-2021 17:05:00 9.6 C 51 % -0.03 C
495 13-04-2021 17:10:00 9 C 57 % 0.95 C
496 13-04-2021 17:15:00 8.5 C 61 % 1.42 C
497 13-04-2021 17:20:00 8.2 C 63 % 1.59 C
498 13-04-2021 17:25:00 7.9 C 63 % 1.3 C
499 13-04-2021 17:30:00 7.9 C 61 % 0.86 C
500 13-04-2021 17:35:00 7.9 C 62 % 1.08 C
Sensor: Nr:Datum:Temp:Feuchte:Taupunkt:
Aussen-T/F 501 13-04-2021 17:40:00 8.1 C 61 % 1.05 C
502 13-04-2021 17:45:00 8 C 60 % 0.72 C
503 13-04-2021 17:50:00 7.9 C 59 % 0.4 C
504 13-04-2021 17:55:00 7.8 C 59 % 0.3 C
505 13-04-2021 18:00:00 7.7 C 60 % 0.44 C
506 13-04-2021 18:05:00 7.7 C 61 % 0.67 C
507 13-04-2021 18:10:00 7.9 C 60 % 0.63 C
508 13-04-2021 18:15:00 8.6 C 58 % 0.82 C
509 13-04-2021 18:20:00 9.1 C 58 % 1.29 C
510 13-04-2021 18:25:00 9.6 C 56 % 1.27 C
511 13-04-2021 18:30:00 10 C 56 % 1.64 C
512 13-04-2021 18:35:00 10.2 C 54 % 1.32 C
513 13-04-2021 18:40:00 10.4 C 52 % 0.98 C
514 13-04-2021 18:45:00 10.5 C 53 % 1.34 C
515 13-04-2021 18:50:00 10.2 C 53 % 1.06 C
516 13-04-2021 18:55:00 9.8 C 54 % 0.95 C
517 13-04-2021 19:00:00 9.2 C 53 % 0.13 C
518 13-04-2021 19:05:00 8.8 C 56 % 0.52 C
519 13-04-2021 19:10:00 8.3 C 60 % 1 C
520 13-04-2021 19:15:00 8 C 63 % 1.4 C
521 13-04-2021 19:20:00 7.7 C 64 % 1.33 C
522 13-04-2021 19:25:00 7.4 C 65 % 1.26 C
523 13-04-2021 19:30:00 7.2 C 66 % 1.29 C
524 13-04-2021 19:35:00 7.1 C 65 % 0.98 C
525 13-04-2021 19:40:00 7 C 66 % 1.09 C
Sensor: Nr:Datum:Temp:Feuchte:Taupunkt:
Aussen-T/F 526 13-04-2021 19:45:00 6.9 C 68 % 1.41 C
527 13-04-2021 19:50:00 6.7 C 69 % 1.43 C
528 13-04-2021 19:55:00 6.6 C 69 % 1.33 C
529 13-04-2021 20:00:00 6.4 C 70 % 1.34 C
530 13-04-2021 20:05:00 6.3 C 72 % 1.63 C
531 13-04-2021 20:10:00 6.1 C 73 % 1.63 C
532 13-04-2021 20:15:00 5.9 C 74 % 1.63 C
533 13-04-2021 20:20:00 5.7 C 75 % 1.62 C
534 13-04-2021 20:25:00 5.4 C 76 % 1.52 C
535 13-04-2021 20:30:00 5.2 C 77 % 1.51 C
536 13-04-2021 20:35:00 4.9 C 78 % 1.39 C
537 13-04-2021 20:40:00 4.7 C 79 % 1.38 C
538 13-04-2021 20:45:00 4.6 C 79 % 1.28 C
539 13-04-2021 20:50:00 4.4 C 80 % 1.26 C
540 13-04-2021 20:55:00 4.3 C 80 % 1.16 C
541 13-04-2021 21:00:00 4.2 C 81 % 1.24 C
542 13-04-2021 21:05:00 4.1 C 82 % 1.31 C
543 13-04-2021 21:10:00 3.9 C 82 % 1.12 C
544 13-04-2021 21:15:00 3.8 C 82 % 1.02 C
545 13-04-2021 21:20:00 3.7 C 83 % 1.09 C
546 13-04-2021 21:25:00 3.6 C 83 % 0.99 C
547 13-04-2021 21:30:00 3.6 C 82 % 0.82 C
548 13-04-2021 21:35:00 3.7 C 83 % 1.09 C
549 13-04-2021 21:40:00 3.7 C 83 % 1.09 C
550 13-04-2021 21:45:00 3.8 C 84 % 1.35 C
Sensor: Nr:Datum:Temp:Feuchte:Taupunkt:
Aussen-T/F 551 13-04-2021 21:50:00 3.8 C 84 % 1.35 C
552 13-04-2021 21:55:00 3.9 C 85 % 1.61 C
553 13-04-2021 22:00:00 3.9 C 85 % 1.61 C
554 13-04-2021 22:05:00 3.9 C 85 % 1.61 C
555 13-04-2021 22:10:00 3.8 C 85 % 1.52 C
556 13-04-2021 22:15:00 3.8 C 85 % 1.52 C
557 13-04-2021 22:20:00 3.7 C 85 % 1.42 C
558 13-04-2021 22:25:00 3.7 C 85 % 1.42 C
559 13-04-2021 22:30:00 3.6 C 85 % 1.32 C
560 13-04-2021 22:35:00 3.4 C 85 % 1.12 C
561 13-04-2021 22:40:00 3.4 C 85 % 1.12 C
562 13-04-2021 22:45:00 3.3 C 85 % 1.03 C
563 13-04-2021 22:50:00 3.1 C 86 % 0.99 C
564 13-04-2021 22:55:00 3 C 86 % 0.89 C
565 13-04-2021 23:00:00 2.9 C 86 % 0.8 C
566 13-04-2021 23:05:00 2.8 C 86 % 0.7 C
567 13-04-2021 23:10:00 2.7 C 87 % 0.76 C
568 13-04-2021 23:15:00 2.6 C 87 % 0.66 C
569 13-04-2021 23:20:00 2.4 C 87 % 0.46 C
570 13-04-2021 23:25:00 2.2 C 87 % 0.27 C
571 13-04-2021 23:30:00 2.1 C 87 % 0.17 C
572 13-04-2021 23:35:00 2 C 88 % 0.23 C
573 13-04-2021 23:40:00 1.9 C 88 % 0.13 C
574 13-04-2021 23:45:00 1.8 C 88 % 0.03 C
575 13-04-2021 23:50:00 1.8 C 89 % 0.19 C
Sensor: Nr:Datum:Temp:Feuchte:Taupunkt:
Aussen-T/F 576 13-04-2021 23:55:00 1.7 C 89 % 0.09 C
577 14-04-2021 00:00:00 1.6 C 89 % -0.01 C
578 14-04-2021 00:05:00 1.5 C 89 % -0.11 C
579 14-04-2021 00:10:00 1.3 C 89 % -0.31 C
580 14-04-2021 00:15:00 1.2 C 89 % -0.41 C
581 14-04-2021 00:20:00 1.1 C 89 % -0.51 C
582 14-04-2021 00:25:00 1 C 90 % -0.45 C
583 14-04-2021 00:30:00 0.9 C 90 % -0.55 C
584 14-04-2021 00:35:00 0.8 C 90 % -0.65 C
585 14-04-2021 00:40:00 0.8 C 90 % -0.65 C
586 14-04-2021 00:45:00 0.7 C 91 % -0.6 C
587 14-04-2021 00:50:00 0.7 C 91 % -0.6 C
588 14-04-2021 00:55:00 0.6 C 91 % -0.7 C
589 14-04-2021 01:00:00 0.6 C 91 % -0.7 C
590 14-04-2021 01:05:00 0.4 C 91 % -0.89 C
591 14-04-2021 01:10:00 0.4 C 91 % -0.89 C
592 14-04-2021 01:15:00 0.3 C 91 % -0.99 C
593 14-04-2021 01:20:00 0.2 C 91 % -1.09 C
594 14-04-2021 01:25:00 0.1 C 91 % -1.19 C
595 14-04-2021 01:30:00 0.1 C 91 % -1.19 C
596 14-04-2021 01:35:00 0.1 C 92 % -1.04 C
597 14-04-2021 01:40:00 0 C 92 % -1.14 C
598 14-04-2021 01:45:00 0 C 92 % -1.14 C
599 14-04-2021 01:50:00 -0.1 C 92 % -1.24 C
600 14-04-2021 01:55:00 -0.1 C 92 % -1.24 C
Sensor: Nr:Datum:Temp:Feuchte:Taupunkt:
Aussen-T/F 601 14-04-2021 02:00:00 -0.2 C 92 % -1.34 C
602 14-04-2021 02:05:00 -0.2 C 92 % -1.34 C
603 14-04-2021 02:10:00 -0.2 C 92 % -1.34 C
604 14-04-2021 02:15:00 -0.3 C 92 % -1.44 C
605 14-04-2021 02:20:00 -0.3 C 93 % -1.29 C
606 14-04-2021 02:25:00 -0.3 C 93 % -1.29 C
607 14-04-2021 02:30:00 -0.4 C 93 % -1.39 C
608 14-04-2021 02:35:00 -0.4 C 93 % -1.39 C
609 14-04-2021 02:40:00 -0.4 C 93 % -1.39 C
610 14-04-2021 02:45:00 -0.6 C 93 % -1.59 C
611 14-04-2021 02:50:00 -0.6 C 93 % -1.59 C
612 14-04-2021 02:55:00 -0.6 C 93 % -1.59 C
613 14-04-2021 03:00:00 -0.6 C 93 % -1.59 C
614 14-04-2021 03:05:00 -0.6 C 93 % -1.59 C
615 14-04-2021 03:10:00 -0.7 C 93 % -1.69 C
616 14-04-2021 03:15:00 -0.7 C 93 % -1.69 C
617 14-04-2021 03:20:00 -0.7 C 93 % -1.69 C
618 14-04-2021 03:25:00 -0.7 C 93 % -1.69 C
619 14-04-2021 03:30:00 -0.8 C 93 % -1.79 C
620 14-04-2021 03:35:00 -0.8 C 93 % -1.79 C
621 14-04-2021 03:40:00 -0.8 C 93 % -1.79 C
622 14-04-2021 03:45:00 -0.9 C 93 % -1.89 C
623 14-04-2021 03:50:00 -0.9 C 93 % -1.89 C
624 14-04-2021 03:55:00 -0.9 C 93 % -1.89 C
625 14-04-2021 04:00:00 -1 C 93 % -1.99 C
Sensor: Nr:Datum:Temp:Feuchte:Taupunkt:
Aussen-T/F 626 14-04-2021 04:05:00 -1 C 94 % -1.84 C
627 14-04-2021 04:10:00 -1 C 94 % -1.84 C
628 14-04-2021 04:15:00 -1 C 94 % -1.84 C
629 14-04-2021 04:20:00 -1.1 C 94 % -1.94 C
630 14-04-2021 04:25:00 -1.1 C 94 % -1.94 C
631 14-04-2021 04:30:00 -1.1 C 94 % -1.94 C
632 14-04-2021 04:35:00 -1.1 C 94 % -1.94 C
633 14-04-2021 04:40:00 -1.1 C 94 % -1.94 C
634 14-04-2021 04:45:00 -1.1 C 94 % -1.94 C
635 14-04-2021 04:50:00 -1.1 C 94 % -1.94 C
636 14-04-2021 04:55:00 -1.1 C 94 % -1.94 C
637 14-04-2021 05:00:00 -1.1 C 94 % -1.94 C
638 14-04-2021 05:05:00 -1.1 C 94 % -1.94 C
639 14-04-2021 05:10:00 -1.2 C 94 % -2.04 C
640 14-04-2021 05:15:00 -1.2 C 94 % -2.04 C
641 14-04-2021 05:20:00 -1.2 C 94 % -2.04 C
642 14-04-2021 05:25:00 -1.3 C 94 % -2.14 C
643 14-04-2021 05:30:00 -1.3 C 94 % -2.14 C
644 14-04-2021 05:35:00 -1.3 C 94 % -2.14 C
645 14-04-2021 05:40:00 -1.4 C 94 % -2.24 C
646 14-04-2021 05:45:00 -1.5 C 94 % -2.34 C
647 14-04-2021 05:50:00 -1.6 C 94 % -2.44 C
648 14-04-2021 05:55:00 -1.6 C 94 % -2.44 C
649 14-04-2021 06:00:00 -1.7 C 94 % -2.54 C
650 14-04-2021 06:05:00 -1.7 C 94 % -2.54 C
Sensor: Nr:Datum:Temp:Feuchte:Taupunkt:
Aussen-T/F 651 14-04-2021 06:10:00 -1.7 C 94 % -2.54 C
652 14-04-2021 06:15:00 -1.7 C 94 % -2.54 C
653 14-04-2021 06:20:00 -1.7 C 94 % -2.54 C
654 14-04-2021 06:25:00 -1.7 C 94 % -2.54 C
655 14-04-2021 06:30:00 -1.7 C 94 % -2.54 C
656 14-04-2021 06:35:00 -1.7 C 94 % -2.54 C
657 14-04-2021 06:40:00 -1.7 C 94 % -2.54 C
658 14-04-2021 06:45:00 -1.7 C 94 % -2.54 C
659 14-04-2021 06:50:00 -1.7 C 94 % -2.54 C
660 14-04-2021 06:55:00 -1.7 C 94 % -2.54 C
661 14-04-2021 07:00:00 -1.8 C 94 % -2.64 C
662 14-04-2021 07:05:00 -1.8 C 94 % -2.64 C
663 14-04-2021 07:10:00 -1.8 C 94 % -2.64 C
664 14-04-2021 07:15:00 -1.8 C 94 % -2.64 C
665 14-04-2021 07:20:00 -1.8 C 94 % -2.64 C
666 14-04-2021 07:25:00 -1.8 C 94 % -2.64 C
667 14-04-2021 07:30:00 -1.8 C 94 % -2.64 C
668 14-04-2021 07:35:00 -1.7 C 94 % -2.54 C
669 14-04-2021 07:40:00 -1.7 C 95 % -2.39 C
670 14-04-2021 07:45:00 -1.7 C 95 % -2.39 C
671 14-04-2021 07:50:00 -1.7 C 95 % -2.39 C
672 14-04-2021 07:55:00 -1.6 C 95 % -2.29 C
673 14-04-2021 08:00:00 -1.5 C 95 % -2.19 C
674 14-04-2021 08:05:00 -1.4 C 95 % -2.1 C
675 14-04-2021 08:10:00 -1.4 C 95 % -2.1 C
Sensor: Nr:Datum:Temp:Feuchte:Taupunkt:
Aussen-T/F 676 14-04-2021 08:15:00 -1.4 C 95 % -2.1 C
677 14-04-2021 08:20:00 -1.4 C 95 % -2.1 C
678 14-04-2021 08:25:00 -1.3 C 95 % -2 C
679 14-04-2021 08:30:00 -1.3 C 95 % -2 C
680 14-04-2021 08:35:00 -1.3 C 95 % -2 C
681 14-04-2021 08:40:00 -1.2 C 95 % -1.9 C
682 14-04-2021 08:45:00 -1.2 C 95 % -1.9 C
683 14-04-2021 08:50:00 -1.1 C 95 % -1.8 C
684 14-04-2021 08:55:00 -1.1 C 95 % -1.8 C
685 14-04-2021 09:00:00 -0.9 C 95 % -1.6 C
686 14-04-2021 09:05:00 -0.8 C 95 % -1.5 C
687 14-04-2021 09:10:00 -0.7 C 95 % -1.4 C
688 14-04-2021 09:15:00 -0.7 C 95 % -1.4 C
689 14-04-2021 09:20:00 -0.6 C 95 % -1.3 C
690 14-04-2021 09:25:00 -0.4 C 95 % -1.1 C
691 14-04-2021 09:30:00 -0.3 C 95 % -1 C
692 14-04-2021 09:35:00 -0.2 C 96 % -0.76 C
693 14-04-2021 09:40:00 -0.1 C 95 % -0.8 C
694 14-04-2021 09:45:00 0 C 96 % -0.56 C
695 14-04-2021 09:50:00 0.2 C 96 % -0.36 C
696 14-04-2021 09:55:00 0.3 C 96 % -0.26 C
697 14-04-2021 10:00:00 0.4 C 96 % -0.16 C
698 14-04-2021 10:05:00 0.6 C 96 % 0.04 C
699 14-04-2021 10:10:00 0.8 C 96 % 0.24 C
700 14-04-2021 10:15:00 1 C 96 % 0.44 C
Sensor: Nr:Datum:Temp:Feuchte:Taupunkt:
Aussen-T/F 701 14-04-2021 10:20:00 1.2 C 96 % 0.63 C
702 14-04-2021 10:25:00 1.4 C 96 % 0.83 C
703 14-04-2021 10:30:00 1.7 C 96 % 1.13 C
704 14-04-2021 10:35:00 1.9 C 96 % 1.33 C
705 14-04-2021 10:40:00 2.2 C 96 % 1.63 C
706 14-04-2021 10:45:00 2.4 C 96 % 1.83 C
707 14-04-2021 10:50:00 2.7 C 95 % 1.98 C
708 14-04-2021 10:55:00 3 C 95 % 2.28 C
709 14-04-2021 11:00:00 3.3 C 94 % 2.43 C
710 14-04-2021 11:05:00 3.7 C 91 % 2.37 C
711 14-04-2021 11:10:00 4 C 89 % 2.36 C
712 14-04-2021 11:15:00 4.4 C 83 % 1.77 C
713 14-04-2021 11:20:00 5 C 78 % 1.49 C
714 14-04-2021 11:25:00 5.5 C 77 % 1.8 C
715 14-04-2021 11:30:00 5.8 C 64 % -0.47 C
716 14-04-2021 11:35:00 6.3 C 62 % -0.43 C
717 14-04-2021 11:40:00 6.5 C 60 % -0.69 C
718 14-04-2021 11:45:00 6.7 C 56 % -1.44 C
719 14-04-2021 11:50:00 7.1 C 54 % -1.56 C
720 14-04-2021 11:55:00 7.4 C 54 % -1.28 C
721 14-04-2021 12:00:00 7.7 C 53 % -1.26 C
722 14-04-2021 12:05:00 7.8 C 53 % -1.17 C
723 14-04-2021 12:10:00 7.7 C 51 % -1.78 C
724 14-04-2021 12:15:00 7.6 C 49 % -2.41 C
725 14-04-2021 12:20:00 7.5 C 49 % -2.51 C
Sensor: Nr:Datum:Temp:Feuchte:Taupunkt:
Aussen-T/F 726 14-04-2021 12:25:00 7.5 C 50 % -2.23 C
727 14-04-2021 12:30:00 7.4 C 48 % -2.87 C
728 14-04-2021 12:35:00 7.3 C 50 % -2.42 C
729 14-04-2021 12:40:00 7.3 C 48 % -2.97 C
730 14-04-2021 12:45:00 7.3 C 47 % -3.25 C
731 14-04-2021 12:50:00 7.4 C 50 % -2.33 C
732 14-04-2021 12:55:00 7.8 C 47 % -2.79 C
733 14-04-2021 13:00:00 8.1 C 48 % -2.23 C
734 14-04-2021 13:05:00 8.2 C 45 % -3.01 C
735 14-04-2021 13:10:00 8.2 C 48 % -2.14 C
736 14-04-2021 13:15:00 8.2 C 48 % -2.14 C
737 14-04-2021 13:20:00 8.1 C 48 % -2.23 C
738 14-04-2021 13:25:00 8.1 C 46 % -2.8 C
739 14-04-2021 13:30:00 8.1 C 47 % -2.52 C
740 14-04-2021 13:35:00 8.1 C 49 % -1.95 C
741 14-04-2021 13:40:00 8 C 45 % -3.19 C
742 14-04-2021 13:45:00 7.8 C 47 % -2.79 C
743 14-04-2021 13:50:00 7.7 C 50 % -2.05 C
744 14-04-2021 13:55:00 7.6 C 51 % -1.87 C
745 14-04-2021 14:00:00 7.6 C 51 % -1.87 C
746 14-04-2021 14:05:00 7.4 C 51 % -2.06 C
747 14-04-2021 14:10:00 7.5 C 55 % -0.94 C
748 14-04-2021 14:15:00 7.9 C 56 % -0.32 C
749 14-04-2021 14:20:00 8.3 C 59 % 0.77 C
750 14-04-2021 14:25:00 8.4 C 58 % 0.63 C
Sensor: Nr:Datum:Temp:Feuchte:Taupunkt:
Aussen-T/F 751 14-04-2021 14:30:00 8.1 C 57 % 0.11 C
752 14-04-2021 14:35:00 8 C 58 % 0.25 C
753 14-04-2021 14:40:00 7.9 C 59 % 0.4 C
754 14-04-2021 14:45:00 8.1 C 59 % 0.58 C
755 14-04-2021 14:50:00 8.1 C 57 % 0.11 C
756 14-04-2021 14:55:00 8 C 57 % 0.01 C
757 14-04-2021 15:00:00 8.2 C 57 % 0.2 C
758 14-04-2021 15:05:00 8.6 C 55 % 0.08 C
759 14-04-2021 15:10:00 8.8 C 54 % 0.02 C
760 14-04-2021 15:15:00 9.1 C 53 % 0.04 C
761 14-04-2021 15:20:00 8.9 C 50 % -0.94 C
762 14-04-2021 15:25:00 8.6 C 52 % -0.68 C
763 14-04-2021 15:30:00 8.5 C 51 % -1.04 C
764 14-04-2021 15:35:00 8.6 C 54 % -0.17 C
765 14-04-2021 15:40:00 8.8 C 53 % -0.24 C
766 14-04-2021 15:45:00 8.9 C 51 % -0.67 C
767 14-04-2021 15:50:00 8.9 C 53 % -0.15 C
768 14-04-2021 15:55:00 8.5 C 53 % -0.52 C
769 14-04-2021 16:00:00 8.3 C 52 % -0.96 C
770 14-04-2021 16:05:00 8.5 C 52 % -0.78 C
771 14-04-2021 16:10:00 8.7 C 51 % -0.86 C
772 14-04-2021 16:15:00 9.1 C 50 % -0.76 C
773 14-04-2021 16:20:00 9 C 49 % -1.13 C
774 14-04-2021 16:25:00 9.2 C 52 % -0.13 C
775 14-04-2021 16:30:00 9.6 C 50 % -0.3 C
Sensor: Nr:Datum:Temp:Feuchte:Taupunkt:
Aussen-T/F 776 14-04-2021 16:35:00 9.8 C 50 % -0.11 C
777 14-04-2021 16:40:00 9.9 C 49 % -0.3 C
778 14-04-2021 16:45:00 10.1 C 49 % -0.11 C
779 14-04-2021 16:50:00 10.1 C 48 % -0.4 C
780 14-04-2021 16:55:00 9.9 C 48 % -0.58 C
781 14-04-2021 17:00:00 8.8 C 60 % 1.48 C
782 14-04-2021 17:05:00 7.8 C 65 % 1.64 C
783 14-04-2021 17:10:00 7.8 C 68 % 2.27 C
784 14-04-2021 17:15:00 7.4 C 68 % 1.89 C
785 14-04-2021 17:20:00 7.2 C 69 % 1.9 C
786 14-04-2021 17:25:00 7.1 C 70 % 2.01 C
787 14-04-2021 17:30:00 6.8 C 70 % 1.72 C
788 14-04-2021 17:35:00 6.6 C 71 % 1.73 C
789 14-04-2021 17:40:00 6.6 C 72 % 1.92 C
790 14-04-2021 17:45:00 6.8 C 72 % 2.12 C
791 14-04-2021 17:50:00 6.8 C 70 % 1.72 C
792 14-04-2021 17:55:00 6.8 C 67 % 1.11 C
793 14-04-2021 18:00:00 6.9 C 67 % 1.21 C
794 14-04-2021 18:05:00 7 C 67 % 1.3 C
795 14-04-2021 18:10:00 7.1 C 67 % 1.4 C
796 14-04-2021 18:15:00 7.1 C 66 % 1.19 C
797 14-04-2021 18:20:00 7.1 C 64 % 0.76 C
798 14-04-2021 18:25:00 7 C 63 % 0.45 C
799 14-04-2021 18:30:00 7 C 64 % 0.67 C
800 14-04-2021 18:35:00 6.9 C 62 % 0.14 C
Sensor: Nr:Datum:Temp:Feuchte:Taupunkt:
Aussen-T/F 801 14-04-2021 18:40:00 6.9 C 62 % 0.14 C
802 14-04-2021 18:45:00 6.9 C 62 % 0.14 C
803 14-04-2021 18:50:00 6.9 C 65 % 0.79 C
804 14-04-2021 18:55:00 7.2 C 64 % 0.86 C
805 14-04-2021 19:00:00 7.6 C 63 % 1.02 C
806 14-04-2021 19:05:00 7.9 C 61 % 0.86 C
807 14-04-2021 19:10:00 7.7 C 66 % 1.76 C
808 14-04-2021 19:15:00 7.3 C 68 % 1.8 C
809 14-04-2021 19:20:00 6.9 C 69 % 1.62 C
810 14-04-2021 19:25:00 6.3 C 71 % 1.44 C
811 14-04-2021 19:30:00 5.9 C 74 % 1.63 C
812 14-04-2021 19:35:00 5.7 C 76 % 1.81 C
813 14-04-2021 19:40:00 5.6 C 77 % 1.89 C
814 14-04-2021 19:45:00 5.5 C 77 % 1.8 C
815 14-04-2021 19:50:00 5.4 C 77 % 1.7 C
816 14-04-2021 19:55:00 5.4 C 77 % 1.7 C
817 14-04-2021 20:00:00 5.3 C 77 % 1.6 C
818 14-04-2021 20:05:00 5.3 C 78 % 1.78 C
819 14-04-2021 20:10:00 5.3 C 78 % 1.78 C
820 14-04-2021 20:15:00 5.2 C 79 % 1.86 C
821 14-04-2021 20:20:00 5 C 78 % 1.49 C
822 14-04-2021 20:25:00 4.8 C 79 % 1.47 C
823 14-04-2021 20:30:00 4.6 C 79 % 1.28 C
824 14-04-2021 20:35:00 4.3 C 80 % 1.16 C
825 14-04-2021 20:40:00 4.1 C 80 % 0.97 C
Sensor: Nr:Datum:Temp:Feuchte:Taupunkt:
Aussen-T/F 826 14-04-2021 20:45:00 3.9 C 81 % 0.95 C
827 14-04-2021 20:50:00 3.8 C 82 % 1.02 C
828 14-04-2021 20:55:00 3.7 C 82 % 0.92 C
829 14-04-2021 21:00:00 3.6 C 83 % 0.99 C
830 14-04-2021 21:05:00 3.5 C 83 % 0.89 C
831 14-04-2021 21:10:00 3.5 C 84 % 1.06 C
832 14-04-2021 21:15:00 3.4 C 84 % 0.96 C
833 14-04-2021 21:20:00 3.3 C 84 % 0.86 C
834 14-04-2021 21:25:00 3.3 C 84 % 0.86 C
835 14-04-2021 21:30:00 3.3 C 85 % 1.03 C
836 14-04-2021 21:35:00 3.3 C 85 % 1.03 C
837 14-04-2021 21:40:00 3.3 C 85 % 1.03 C
838 14-04-2021 21:45:00 3.2 C 85 % 0.93 C
839 14-04-2021 21:50:00 3.2 C 86 % 1.09 C
840 14-04-2021 21:55:00 3.1 C 86 % 0.99 C
841 14-04-2021 22:00:00 3.1 C 86 % 0.99 C
842 14-04-2021 22:05:00 3.1 C 87 % 1.15 C
843 14-04-2021 22:10:00 3.1 C 87 % 1.15 C
844 14-04-2021 22:15:00 3.1 C 87 % 1.15 C
845 14-04-2021 22:20:00 3.1 C 87 % 1.15 C
846 14-04-2021 22:25:00 3.1 C 87 % 1.15 C
847 14-04-2021 22:30:00 3.2 C 87 % 1.25 C
848 14-04-2021 22:35:00 3.2 C 88 % 1.41 C
849 14-04-2021 22:40:00 3.1 C 88 % 1.31 C
850 14-04-2021 22:45:00 3.1 C 88 % 1.31 C
Sensor: Nr:Datum:Temp:Feuchte:Taupunkt:
Aussen-T/F 851 14-04-2021 22:50:00 2.9 C 87 % 0.96 C
852 14-04-2021 22:55:00 2.8 C 88 % 1.02 C
853 14-04-2021 23:00:00 2.8 C 87 % 0.86 C
854 14-04-2021 23:05:00 2.7 C 88 % 0.92 C
855 14-04-2021 23:10:00 2.6 C 88 % 0.82 C
856 14-04-2021 23:15:00 2.5 C 88 % 0.72 C
857 14-04-2021 23:20:00 2.4 C 88 % 0.62 C
858 14-04-2021 23:25:00 2.3 C 88 % 0.52 C
859 14-04-2021 23:30:00 2.3 C 89 % 0.68 C
860 14-04-2021 23:35:00 2.2 C 89 % 0.58 C
861 14-04-2021 23:40:00 2 C 89 % 0.38 C
862 14-04-2021 23:45:00 1.9 C 89 % 0.28 C
863 14-04-2021 23:50:00 1.8 C 89 % 0.19 C
864 14-04-2021 23:55:00 1.7 C 89 % 0.09 C
865 15-04-2021 00:00:00 1.7 C 90 % 0.24 C
866 15-04-2021 00:05:00 1.7 C 90 % 0.24 C
867 15-04-2021 00:10:00 1.7 C 90 % 0.24 C
868 15-04-2021 00:15:00 1.7 C 91 % 0.39 C
869 15-04-2021 00:20:00 1.7 C 91 % 0.39 C
870 15-04-2021 00:25:00 1.7 C 91 % 0.39 C
871 15-04-2021 00:30:00 1.6 C 90 % 0.14 C
872 15-04-2021 00:35:00 1.4 C 90 % -0.06 C
873 15-04-2021 00:40:00 1.3 C 91 % 0 C
874 15-04-2021 00:45:00 1.2 C 90 % -0.25 C
875 15-04-2021 00:50:00 1.1 C 91 % -0.2 C
Sensor: Nr:Datum:Temp:Feuchte:Taupunkt:
Aussen-T/F 876 15-04-2021 00:55:00 1.1 C 91 % -0.2 C
877 15-04-2021 01:00:00 1 C 91 % -0.3 C
878 15-04-2021 01:05:00 1 C 92 % -0.15 C
879 15-04-2021 01:10:00 1 C 92 % -0.15 C
880 15-04-2021 01:15:00 0.9 C 92 % -0.25 C
881 15-04-2021 01:20:00 0.9 C 92 % -0.25 C
882 15-04-2021 01:25:00 0.8 C 91 % -0.5 C
883 15-04-2021 01:30:00 0.7 C 92 % -0.45 C
884 15-04-2021 01:35:00 0.6 C 92 % -0.55 C
885 15-04-2021 01:40:00 0.4 C 92 % -0.74 C
886 15-04-2021 01:45:00 0.4 C 92 % -0.74 C
887 15-04-2021 01:50:00 0.3 C 92 % -0.84 C
888 15-04-2021 01:55:00 0.3 C 92 % -0.84 C
889 15-04-2021 02:00:00 0.2 C 92 % -0.94 C
890 15-04-2021 02:05:00 0.1 C 92 % -1.04 C
891 15-04-2021 02:10:00 0 C 92 % -1.14 C
892 15-04-2021 02:15:00 -0.1 C 92 % -1.24 C
893 15-04-2021 02:20:00 -0.1 C 92 % -1.24 C
894 15-04-2021 02:25:00 -0.2 C 93 % -1.19 C
895 15-04-2021 02:30:00 -0.2 C 93 % -1.19 C
896 15-04-2021 02:35:00 -0.3 C 93 % -1.29 C
897 15-04-2021 02:40:00 -0.3 C 93 % -1.29 C
898 15-04-2021 02:45:00 -0.3 C 93 % -1.29 C
899 15-04-2021 02:50:00 -0.3 C 93 % -1.29 C
900 15-04-2021 02:55:00 -0.3 C 93 % -1.29 C
Sensor: Nr:Datum:Temp:Feuchte:Taupunkt:
Aussen-T/F 901 15-04-2021 03:00:00 -0.3 C 93 % -1.29 C
902 15-04-2021 03:05:00 -0.3 C 93 % -1.29 C
903 15-04-2021 03:10:00 -0.3 C 93 % -1.29 C
904 15-04-2021 03:15:00 -0.3 C 94 % -1.15 C
905 15-04-2021 03:20:00 -0.4 C 94 % -1.25 C
906 15-04-2021 03:25:00 -0.4 C 94 % -1.25 C
907 15-04-2021 03:30:00 -0.5 C 93 % -1.49 C
908 15-04-2021 03:35:00 -0.6 C 93 % -1.59 C
909 15-04-2021 03:40:00 -0.6 C 94 % -1.44 C
910 15-04-2021 03:45:00 -0.6 C 94 % -1.44 C
911 15-04-2021 03:50:00 -0.6 C 94 % -1.44 C
912 15-04-2021 03:55:00 -0.7 C 94 % -1.54 C
913 15-04-2021 04:00:00 -0.7 C 94 % -1.54 C
914 15-04-2021 04:05:00 -0.8 C 94 % -1.64 C
915 15-04-2021 04:10:00 -0.8 C 94 % -1.64 C
916 15-04-2021 04:15:00 -0.9 C 94 % -1.74 C
917 15-04-2021 04:20:00 -0.9 C 94 % -1.74 C
918 15-04-2021 04:25:00 -0.9 C 94 % -1.74 C
919 15-04-2021 04:30:00 -0.9 C 94 % -1.74 C
920 15-04-2021 04:35:00 -0.9 C 94 % -1.74 C
921 15-04-2021 04:40:00 -0.9 C 94 % -1.74 C
922 15-04-2021 04:45:00 -0.9 C 94 % -1.74 C
923 15-04-2021 04:50:00 -0.9 C 94 % -1.74 C
924 15-04-2021 04:55:00 -0.9 C 94 % -1.74 C
925 15-04-2021 05:00:00 -0.8 C 94 % -1.64 C
Sensor: Nr:Datum:Temp:Feuchte:Taupunkt:
Aussen-T/F 926 15-04-2021 05:05:00 -0.8 C 94 % -1.64 C
927 15-04-2021 05:10:00 -0.7 C 95 % -1.4 C
928 15-04-2021 05:15:00 -0.6 C 95 % -1.3 C
929 15-04-2021 05:20:00 -0.6 C 95 % -1.3 C
930 15-04-2021 05:25:00 -0.7 C 95 % -1.4 C
931 15-04-2021 05:30:00 -0.7 C 95 % -1.4 C
932 15-04-2021 05:35:00 -0.8 C 94 % -1.64 C
933 15-04-2021 05:40:00 -0.8 C 94 % -1.64 C
934 15-04-2021 05:45:00 -0.8 C 94 % -1.64 C
935 15-04-2021 05:50:00 -0.8 C 94 % -1.64 C
936 15-04-2021 05:55:00 -0.9 C 94 % -1.74 C
937 15-04-2021 06:00:00 -0.9 C 94 % -1.74 C
938 15-04-2021 06:05:00 -0.9 C 95 % -1.6 C
939 15-04-2021 06:10:00 -1 C 95 % -1.7 C
940 15-04-2021 06:15:00 -1.1 C 95 % -1.8 C
941 15-04-2021 06:20:00 -1.1 C 95 % -1.8 C
942 15-04-2021 06:25:00 -1.1 C 95 % -1.8 C
943 15-04-2021 06:30:00 -1.1 C 95 % -1.8 C
944 15-04-2021 06:35:00 -1.1 C 95 % -1.8 C
945 15-04-2021 06:40:00 -1.2 C 95 % -1.9 C
946 15-04-2021 06:45:00 -1.2 C 95 % -1.9 C
947 15-04-2021 06:50:00 -1.2 C 95 % -1.9 C
948 15-04-2021 06:55:00 -1.3 C 95 % -2 C
949 15-04-2021 07:00:00 -1.3 C 95 % -2 C
950 15-04-2021 07:05:00 -1.3 C 95 % -2 C
Sensor: Nr:Datum:Temp:Feuchte:Taupunkt:
Aussen-T/F 951 15-04-2021 07:10:00 -1.2 C 95 % -1.9 C
952 15-04-2021 07:15:00 -1.2 C 95 % -1.9 C
953 15-04-2021 07:20:00 -1.1 C 95 % -1.8 C
954 15-04-2021 07:25:00 -1.1 C 95 % -1.8 C
955 15-04-2021 07:30:00 -1.1 C 95 % -1.8 C
956 15-04-2021 07:35:00 -1 C 95 % -1.7 C
957 15-04-2021 07:40:00 -1 C 95 % -1.7 C
958 15-04-2021 07:45:00 -1 C 95 % -1.7 C
959 15-04-2021 07:50:00 -0.9 C 95 % -1.6 C
960 15-04-2021 07:55:00 -0.9 C 95 % -1.6 C
961 15-04-2021 08:00:00 -0.9 C 95 % -1.6 C
962 15-04-2021 08:05:00 -0.9 C 95 % -1.6 C
963 15-04-2021 08:10:00 -0.8 C 95 % -1.5 C
964 15-04-2021 08:15:00 -0.8 C 95 % -1.5 C
965 15-04-2021 08:20:00 -0.7 C 95 % -1.4 C
966 15-04-2021 08:25:00 -0.7 C 95 % -1.4 C
967 15-04-2021 08:30:00 -0.6 C 95 % -1.3 C
968 15-04-2021 08:35:00 -0.6 C 95 % -1.3 C
969 15-04-2021 08:40:00 -0.5 C 95 % -1.2 C
970 15-04-2021 08:45:00 -0.4 C 95 % -1.1 C
971 15-04-2021 08:50:00 -0.3 C 95 % -1 C
972 15-04-2021 08:55:00 -0.3 C 95 % -1 C
973 15-04-2021 09:00:00 -0.2 C 95 % -0.9 C
974 15-04-2021 09:05:00 -0.2 C 95 % -0.9 C
975 15-04-2021 09:10:00 -0.1 C 95 % -0.8 C
Sensor: Nr:Datum:Temp:Feuchte:Taupunkt:
Aussen-T/F 976 15-04-2021 09:15:00 0.1 C 96 % -0.46 C
977 15-04-2021 09:20:00 0.2 C 96 % -0.36 C
978 15-04-2021 09:25:00 0.4 C 96 % -0.16 C
979 15-04-2021 09:30:00 0.6 C 96 % 0.04 C
980 15-04-2021 09:35:00 0.7 C 96 % 0.14 C
981 15-04-2021 09:40:00 0.8 C 96 % 0.24 C
982 15-04-2021 09:45:00 0.9 C 96 % 0.34 C
983 15-04-2021 09:50:00 1.1 C 96 % 0.54 C
984 15-04-2021 09:55:00 1.2 C 96 % 0.63 C
985 15-04-2021 10:00:00 1.3 C 96 % 0.73 C
986 15-04-2021 10:05:00 1.5 C 96 % 0.93 C
987 15-04-2021 10:10:00 1.7 C 96 % 1.13 C
988 15-04-2021 10:15:00 1.8 C 96 % 1.23 C
989 15-04-2021 10:20:00 2.1 C 96 % 1.53 C
990 15-04-2021 10:25:00 2.3 C 96 % 1.73 C
991 15-04-2021 10:30:00 2.6 C 96 % 2.03 C
992 15-04-2021 10:35:00 2.8 C 96 % 2.23 C
993 15-04-2021 10:40:00 3.1 C 96 % 2.53 C
994 15-04-2021 10:45:00 3.2 C 96 % 2.63 C
995 15-04-2021 10:50:00 3.4 C 96 % 2.82 C
996 15-04-2021 10:55:00 3.7 C 95 % 2.98 C
997 15-04-2021 11:00:00 3.9 C 94 % 3.02 C
998 15-04-2021 11:05:00 4.3 C 92 % 3.12 C
999 15-04-2021 11:10:00 4.6 C 90 % 3.1 C
1000 15-04-2021 11:15:00 4.9 C 87 % 2.92 C
Sensor: Nr:Datum:Temp:Feuchte:Taupunkt:
Aussen-T/F 1001 15-04-2021 11:20:00 5.4 C 85 % 3.09 C
1002 15-04-2021 11:25:00 5.8 C 83 % 3.14 C
1003 15-04-2021 11:30:00 6.1 C 78 % 2.56 C
1004 15-04-2021 11:35:00 6.3 C 76 % 2.39 C
1005 15-04-2021 11:40:00 6.3 C 74 % 2.02 C
1006 15-04-2021 11:45:00 6.5 C 74 % 2.21 C
1007 15-04-2021 11:50:00 6.8 C 72 % 2.12 C
1008 15-04-2021 11:55:00 7 C 70 % 1.91 C
1009 15-04-2021 12:00:00 7.2 C 69 % 1.9 C
1010 15-04-2021 12:05:00 7.4 C 69 % 2.1 C
1011 15-04-2021 12:10:00 7.6 C 67 % 1.88 C
1012 15-04-2021 12:15:00 7.7 C 66 % 1.76 C
1013 15-04-2021 12:20:00 7.8 C 65 % 1.64 C
1014 15-04-2021 12:25:00 7.9 C 65 % 1.74 C
1015 15-04-2021 12:30:00 7.8 C 65 % 1.64 C
1016 15-04-2021 12:35:00 7.8 C 65 % 1.64 C
1017 15-04-2021 12:40:00 7.8 C 64 % 1.43 C
1018 15-04-2021 12:45:00 7.7 C 65 % 1.55 C
1019 15-04-2021 12:50:00 7.4 C 67 % 1.69 C
1020 15-04-2021 12:55:00 7 C 71 % 2.11 C
1021 15-04-2021 13:00:00 6.5 C 74 % 2.21 C
1022 15-04-2021 13:05:00 6.3 C 76 % 2.39 C
1023 15-04-2021 13:10:00 6.4 C 75 % 2.3 C
1024 15-04-2021 13:15:00 6.7 C 74 % 2.4 C
1025 15-04-2021 13:20:00 7.1 C 71 % 2.21 C
Sensor: Nr:Datum:Temp:Feuchte:Taupunkt:
Aussen-T/F 1026 15-04-2021 13:25:00 7.5 C 68 % 1.99 C
1027 15-04-2021 13:30:00 7.8 C 68 % 2.27 C
1028 15-04-2021 13:35:00 8 C 66 % 2.05 C
1029 15-04-2021 13:40:00 8.2 C 63 % 1.59 C
1030 15-04-2021 13:45:00 8.4 C 64 % 2 C
1031 15-04-2021 13:50:00 8.5 C 63 % 1.87 C
1032 15-04-2021 13:55:00 8.5 C 60 % 1.19 C
1033 15-04-2021 14:00:00 8.5 C 63 % 1.87 C
1034 15-04-2021 14:05:00 8.5 C 60 % 1.19 C
1035 15-04-2021 14:10:00 8.4 C 60 % 1.1 C
1036 15-04-2021 14:15:00 8.4 C 58 % 0.63 C
1037 15-04-2021 14:20:00 8.7 C 59 % 1.15 C
1038 15-04-2021 14:25:00 9 C 57 % 0.95 C
1039 15-04-2021 14:30:00 9.2 C 59 % 1.62 C
1040 15-04-2021 14:35:00 9.2 C 57 % 1.14 C
1041 15-04-2021 14:40:00 8.9 C 59 % 1.34 C
1042 15-04-2021 14:45:00 8.6 C 59 % 1.05 C
1043 15-04-2021 14:50:00 8.3 C 61 % 1.23 C
1044 15-04-2021 14:55:00 8.2 C 63 % 1.59 C
1045 15-04-2021 15:00:00 8.3 C 65 % 2.12 C
1046 15-04-2021 15:05:00 8.4 C 63 % 1.78 C
1047 15-04-2021 15:10:00 8.6 C 61 % 1.52 C
1048 15-04-2021 15:15:00 8.7 C 62 % 1.84 C
1049 15-04-2021 15:20:00 9 C 59 % 1.43 C
1050 15-04-2021 15:25:00 9.3 C 59 % 1.71 C
Sensor: Nr:Datum:Temp:Feuchte:Taupunkt:
Aussen-T/F 1051 15-04-2021 15:30:00 9.6 C 56 % 1.27 C
1052 15-04-2021 15:35:00 9.6 C 58 % 1.75 C
1053 15-04-2021 15:40:00 9.2 C 57 % 1.14 C
1054 15-04-2021 15:45:00 9.1 C 60 % 1.76 C
1055 15-04-2021 15:50:00 9.4 C 59 % 1.81 C
1056 15-04-2021 15:55:00 9.6 C 57 % 1.51 C
1057 15-04-2021 16:00:00 9.1 C 59 % 1.52 C
1058 15-04-2021 16:05:00 8.7 C 61 % 1.61 C
1059 15-04-2021 16:10:00 8.2 C 67 % 2.45 C
1060 15-04-2021 16:15:00 7.8 C 72 % 3.08 C
1061 15-04-2021 16:20:00 7.6 C 76 % 3.65 C
1062 15-04-2021 16:25:00 7.3 C 78 % 3.73 C
1063 15-04-2021 16:30:00 7.1 C 78 % 3.53 C
1064 15-04-2021 16:35:00 6.8 C 80 % 3.6 C
1065 15-04-2021 16:40:00 6.7 C 81 % 3.68 C
1066 15-04-2021 16:45:00 6.7 C 80 % 3.5 C
1067 15-04-2021 16:50:00 6.7 C 81 % 3.68 C
1068 15-04-2021 16:55:00 6.9 C 78 % 3.34 C
1069 15-04-2021 17:00:00 7.4 C 78 % 3.82 C
1070 15-04-2021 17:05:00 7.9 C 70 % 2.78 C
1071 15-04-2021 17:10:00 8.1 C 67 % 2.35 C
1072 15-04-2021 17:15:00 8.1 C 66 % 2.14 C
1073 15-04-2021 17:20:00 8.1 C 69 % 2.77 C
1074 15-04-2021 17:25:00 8.2 C 70 % 3.06 C
1075 15-04-2021 17:30:00 8 C 69 % 2.67 C
Sensor: Nr:Datum:Temp:Feuchte:Taupunkt:
Aussen-T/F 1076 15-04-2021 17:35:00 7.9 C 71 % 2.98 C
1077 15-04-2021 17:40:00 7.9 C 69 % 2.57 C
1078 15-04-2021 17:45:00 7.9 C 70 % 2.78 C
1079 15-04-2021 17:50:00 7.9 C 70 % 2.78 C
1080 15-04-2021 17:55:00 8 C 69 % 2.67 C
1081 15-04-2021 18:00:00 8.4 C 68 % 2.85 C
1082 15-04-2021 18:05:00 8.9 C 64 % 2.47 C
1083 15-04-2021 18:10:00 9.3 C 64 % 2.85 C
1084 15-04-2021 18:15:00 9.5 C 60 % 2.13 C
1085 15-04-2021 18:20:00 9.6 C 62 % 2.69 C
1086 15-04-2021 18:25:00 9.3 C 59 % 1.71 C
1087 15-04-2021 18:30:00 9 C 59 % 1.43 C
1088 15-04-2021 18:35:00 8.7 C 60 % 1.38 C
1089 15-04-2021 18:40:00 8.6 C 63 % 1.97 C
1090 15-04-2021 18:45:00 8.4 C 61 % 1.33 C
1091 15-04-2021 18:50:00 8.4 C 61 % 1.33 C
1092 15-04-2021 18:55:00 8.6 C 63 % 1.97 C
1093 15-04-2021 19:00:00 8.9 C 59 % 1.34 C
1094 15-04-2021 19:05:00 9 C 59 % 1.43 C
1095 15-04-2021 19:10:00 8.9 C 57 % 0.86 C
1096 15-04-2021 19:15:00 8.4 C 58 % 0.63 C
1097 15-04-2021 19:20:00 8 C 60 % 0.72 C
1098 15-04-2021 19:25:00 7.8 C 61 % 0.76 C
1099 15-04-2021 19:30:00 7.6 C 61 % 0.57 C
1100 15-04-2021 19:35:00 7.4 C 63 % 0.83 C
Sensor: Nr:Datum:Temp:Feuchte:Taupunkt:
Aussen-T/F 1101 15-04-2021 19:40:00 7.3 C 65 % 1.17 C
1102 15-04-2021 19:45:00 7.3 C 64 % 0.95 C
1103 15-04-2021 19:50:00 7.2 C 66 % 1.29 C
1104 15-04-2021 19:55:00 7.2 C 69 % 1.9 C
1105 15-04-2021 20:00:00 7.1 C 70 % 2.01 C
1106 15-04-2021 20:05:00 7 C 71 % 2.11 C
1107 15-04-2021 20:10:00 6.8 C 72 % 2.12 C
1108 15-04-2021 20:15:00 6.6 C 72 % 1.92 C
1109 15-04-2021 20:20:00 6.4 C 72 % 1.73 C
1110 15-04-2021 20:25:00 6.2 C 74 % 1.92 C
1111 15-04-2021 20:30:00 5.9 C 75 % 1.82 C
1112 15-04-2021 20:35:00 5.8 C 76 % 1.91 C
1113 15-04-2021 20:40:00 5.7 C 77 % 1.99 C
1114 15-04-2021 20:45:00 5.6 C 78 % 2.07 C
1115 15-04-2021 20:50:00 5.5 C 79 % 2.16 C
1116 15-04-2021 20:55:00 5.4 C 79 % 2.06 C
1117 15-04-2021 21:00:00 5.3 C 80 % 2.14 C
1118 15-04-2021 21:05:00 5.3 C 80 % 2.14 C
1119 15-04-2021 21:10:00 5.2 C 80 % 2.04 C
1120 15-04-2021 21:15:00 5.2 C 80 % 2.04 C
1121 15-04-2021 21:20:00 5.1 C 81 % 2.12 C
1122 15-04-2021 21:25:00 5.1 C 81 % 2.12 C
1123 15-04-2021 21:30:00 5 C 82 % 2.19 C
1124 15-04-2021 21:35:00 4.9 C 82 % 2.09 C
1125 15-04-2021 21:40:00 4.9 C 83 % 2.26 C
Sensor: Nr:Datum:Temp:Feuchte:Taupunkt:
Aussen-T/F 1126 15-04-2021 21:45:00 4.9 C 83 % 2.26 C
1127 15-04-2021 21:50:00 4.9 C 83 % 2.26 C
1128 15-04-2021 21:55:00 4.8 C 83 % 2.16 C
1129 15-04-2021 22:00:00 4.7 C 83 % 2.07 C
1130 15-04-2021 22:05:00 4.4 C 83 % 1.77 C
1131 15-04-2021 22:10:00 4.3 C 83 % 1.67 C
1132 15-04-2021 22:15:00 4.2 C 83 % 1.58 C
1133 15-04-2021 22:20:00 4 C 83 % 1.38 C
1134 15-04-2021 22:25:00 3.9 C 83 % 1.28 C
1135 15-04-2021 22:30:00 3.8 C 83 % 1.19 C
1136 15-04-2021 22:35:00 3.7 C 83 % 1.09 C
1137 15-04-2021 22:40:00 3.7 C 83 % 1.09 C
1138 15-04-2021 22:45:00 3.5 C 83 % 0.89 C
1139 15-04-2021 22:50:00 3.4 C 83 % 0.79 C
1140 15-04-2021 22:55:00 3.3 C 83 % 0.7 C
1141 15-04-2021 23:00:00 3.2 C 84 % 0.76 C
1142 15-04-2021 23:05:00 3.2 C 84 % 0.76 C
1143 15-04-2021 23:10:00 3.1 C 84 % 0.67 C
1144 15-04-2021 23:15:00 2.9 C 84 % 0.47 C
1145 15-04-2021 23:20:00 2.8 C 83 % 0.21 C
1146 15-04-2021 23:25:00 2.7 C 84 % 0.27 C
1147 15-04-2021 23:30:00 2.6 C 84 % 0.18 C
1148 15-04-2021 23:35:00 2.4 C 84 % -0.02 C
1149 15-04-2021 23:40:00 2.3 C 85 % 0.04 C
1150 15-04-2021 23:45:00 2.3 C 85 % 0.04 C
Sensor: Nr:Datum:Temp:Feuchte:Taupunkt:
Aussen-T/F 1151 15-04-2021 23:50:00 2.2 C 85 % -0.05 C
1152 15-04-2021 23:55:00 2.1 C 86 % 0.01 C
1153 16-04-2021 00:00:00 2.1 C 86 % 0.01 C
1154 16-04-2021 00:05:00 2.1 C 86 % 0.01 C
1155 16-04-2021 00:10:00 2 C 86 % -0.09 C
1156 16-04-2021 00:15:00 1.8 C 86 % -0.29 C
1157 16-04-2021 00:20:00 1.7 C 86 % -0.38 C
1158 16-04-2021 00:25:00 1.6 C 86 % -0.48 C
1159 16-04-2021 00:30:00 1.4 C 86 % -0.68 C
1160 16-04-2021 00:35:00 1.3 C 87 % -0.62 C
1161 16-04-2021 00:40:00 1.2 C 87 % -0.72 C
1162 16-04-2021 00:45:00 1.1 C 88 % -0.66 C
1163 16-04-2021 00:50:00 0.9 C 88 % -0.86 C
1164 16-04-2021 00:55:00 0.8 C 88 % -0.96 C
1165 16-04-2021 01:00:00 0.8 C 89 % -0.8 C
1166 16-04-2021 01:05:00 0.7 C 89 % -0.9 C
1167 16-04-2021 01:10:00 0.7 C 90 % -0.75 C
1168 16-04-2021 01:15:00 0.7 C 90 % -0.75 C
1169 16-04-2021 01:20:00 0.7 C 90 % -0.75 C
1170 16-04-2021 01:25:00 0.7 C 90 % -0.75 C
1171 16-04-2021 01:30:00 0.6 C 89 % -1 C
1172 16-04-2021 01:35:00 0.5 C 89 % -1.1 C
1173 16-04-2021 01:40:00 0.4 C 90 % -1.04 C
1174 16-04-2021 01:45:00 0.3 C 90 % -1.14 C
1175 16-04-2021 01:50:00 0.3 C 90 % -1.14 C
Sensor: Nr:Datum:Temp:Feuchte:Taupunkt:
Aussen-T/F 1176 16-04-2021 01:55:00 0.2 C 90 % -1.24 C
1177 16-04-2021 02:00:00 0.2 C 90 % -1.24 C
1178 16-04-2021 02:05:00 0.2 C 90 % -1.24 C
1179 16-04-2021 02:10:00 0.2 C 90 % -1.24 C
1180 16-04-2021 02:15:00 0.2 C 91 % -1.09 C
1181 16-04-2021 02:20:00 0.2 C 91 % -1.09 C
1182 16-04-2021 02:25:00 0.2 C 91 % -1.09 C
1183 16-04-2021 02:30:00 0.3 C 91 % -0.99 C
1184 16-04-2021 02:35:00 0.4 C 92 % -0.74 C
1185 16-04-2021 02:40:00 0.4 C 91 % -0.89 C
1186 16-04-2021 02:45:00 0.6 C 92 % -0.55 C
1187 16-04-2021 02:50:00 0.6 C 92 % -0.55 C
1188 16-04-2021 02:55:00 0.7 C 92 % -0.45 C
1189 16-04-2021 03:00:00 0.8 C 92 % -0.35 C
1190 16-04-2021 03:05:00 0.8 C 91 % -0.5 C
1191 16-04-2021 03:10:00 0.9 C 91 % -0.4 C
1192 16-04-2021 03:15:00 0.9 C 92 % -0.25 C
1193 16-04-2021 03:20:00 0.9 C 91 % -0.4 C
1194 16-04-2021 03:25:00 1 C 91 % -0.3 C
1195 16-04-2021 03:30:00 1 C 91 % -0.3 C
1196 16-04-2021 03:35:00 1.1 C 91 % -0.2 C
1197 16-04-2021 03:40:00 1.1 C 91 % -0.2 C
1198 16-04-2021 03:45:00 1.2 C 91 % -0.1 C
1199 16-04-2021 03:50:00 1.2 C 91 % -0.1 C
1200 16-04-2021 03:55:00 1.3 C 91 % 0 C
Sensor: Nr:Datum:Temp:Feuchte:Taupunkt:
Aussen-T/F 1201 16-04-2021 04:00:00 1.3 C 91 % 0 C
1202 16-04-2021 04:05:00 1.3 C 91 % 0 C
1203 16-04-2021 04:10:00 1.4 C 91 % 0.1 C
1204 16-04-2021 04:15:00 1.4 C 91 % 0.1 C
1205 16-04-2021 04:20:00 1.4 C 91 % 0.1 C
1206 16-04-2021 04:25:00 1.4 C 91 % 0.1 C
1207 16-04-2021 04:30:00 1.4 C 91 % 0.1 C
1208 16-04-2021 04:35:00 1.5 C 91 % 0.19 C
1209 16-04-2021 04:40:00 1.5 C 91 % 0.19 C
1210 16-04-2021 04:45:00 1.5 C 91 % 0.19 C
1211 16-04-2021 04:50:00 1.6 C 91 % 0.29 C
1212 16-04-2021 04:55:00 1.6 C 90 % 0.14 C
1213 16-04-2021 05:00:00 1.6 C 90 % 0.14 C
1214 16-04-2021 05:05:00 1.6 C 90 % 0.14 C
1215 16-04-2021 05:10:00 1.6 C 90 % 0.14 C
1216 16-04-2021 05:15:00 1.6 C 90 % 0.14 C
1217 16-04-2021 05:20:00 1.6 C 90 % 0.14 C
1218 16-04-2021 05:25:00 1.6 C 90 % 0.14 C
1219 16-04-2021 05:30:00 1.6 C 90 % 0.14 C
1220 16-04-2021 05:35:00 1.6 C 90 % 0.14 C
1221 16-04-2021 05:40:00 1.5 C 90 % 0.04 C
1222 16-04-2021 05:45:00 1.5 C 90 % 0.04 C
1223 16-04-2021 05:50:00 1.4 C 90 % -0.06 C
1224 16-04-2021 05:55:00 1.5 C 90 % 0.04 C
1225 16-04-2021 06:00:00 1.5 C 90 % 0.04 C
Sensor: Nr:Datum:Temp:Feuchte:Taupunkt:
Aussen-T/F 1226 16-04-2021 06:05:00 1.6 C 91 % 0.29 C
1227 16-04-2021 06:10:00 1.6 C 90 % 0.14 C
1228 16-04-2021 06:15:00 1.6 C 91 % 0.29 C
1229 16-04-2021 06:20:00 1.7 C 90 % 0.24 C
1230 16-04-2021 06:25:00 1.7 C 90 % 0.24 C
1231 16-04-2021 06:30:00 1.7 C 90 % 0.24 C
1232 16-04-2021 06:35:00 1.7 C 90 % 0.24 C
1233 16-04-2021 06:40:00 1.7 C 90 % 0.24 C
1234 16-04-2021 06:45:00 1.7 C 90 % 0.24 C
1235 16-04-2021 06:50:00 1.7 C 90 % 0.24 C
1236 16-04-2021 06:55:00 1.7 C 90 % 0.24 C
1237 16-04-2021 07:00:00 1.7 C 91 % 0.39 C
1238 16-04-2021 07:05:00 1.7 C 91 % 0.39 C
1239 16-04-2021 07:10:00 1.7 C 91 % 0.39 C
1240 16-04-2021 07:15:00 1.8 C 91 % 0.49 C
1241 16-04-2021 07:20:00 1.8 C 91 % 0.49 C
1242 16-04-2021 07:25:00 1.9 C 91 % 0.59 C
1243 16-04-2021 07:30:00 1.9 C 91 % 0.59 C
1244 16-04-2021 07:35:00 2 C 91 % 0.69 C
1245 16-04-2021 07:40:00 2.1 C 91 % 0.79 C
1246 16-04-2021 07:45:00 2.2 C 91 % 0.89 C
1247 16-04-2021 07:50:00 2.2 C 91 % 0.89 C
1248 16-04-2021 07:55:00 2.2 C 90 % 0.73 C
1249 16-04-2021 08:00:00 2.2 C 90 % 0.73 C
1250 16-04-2021 08:05:00 2.2 C 90 % 0.73 C
Sensor: Nr:Datum:Temp:Feuchte:Taupunkt:
Aussen-T/F 1251 16-04-2021 08:10:00 2.3 C 90 % 0.83 C
1252 16-04-2021 08:15:00 2.3 C 91 % 0.99 C
1253 16-04-2021 08:20:00 2.4 C 91 % 1.08 C
1254 16-04-2021 08:25:00 2.6 C 90 % 1.13 C
1255 16-04-2021 08:30:00 2.7 C 90 % 1.23 C
1256 16-04-2021 08:35:00 2.9 C 90 % 1.43 C
1257 16-04-2021 08:40:00 3.1 C 89 % 1.47 C
1258 16-04-2021 08:45:00 3.3 C 89 % 1.67 C
1259 16-04-2021 08:50:00 3.4 C 89 % 1.76 C
1260 16-04-2021 08:55:00 3.7 C 88 % 1.9 C
1261 16-04-2021 09:00:00 3.8 C 87 % 1.84 C
1262 16-04-2021 09:05:00 4 C 85 % 1.71 C
1263 16-04-2021 09:10:00 4.2 C 83 % 1.58 C
1264 16-04-2021 09:15:00 4.3 C 82 % 1.51 C
1265 16-04-2021 09:20:00 4.6 C 80 % 1.46 C
1266 16-04-2021 09:25:00 4.7 C 77 % 1.02 C
1267 16-04-2021 09:30:00 4.9 C 76 % 1.03 C
1268 16-04-2021 09:35:00 5 C 75 % 0.95 C
1269 16-04-2021 09:40:00 5.2 C 74 % 0.95 C
1270 16-04-2021 09:45:00 5.3 C 74 % 1.05 C
1271 16-04-2021 09:50:00 5.3 C 73 % 0.86 C
1272 16-04-2021 09:55:00 5.5 C 73 % 1.06 C
1273 16-04-2021 10:00:00 5.6 C 73 % 1.15 C
1274 16-04-2021 10:05:00 5.7 C 72 % 1.06 C
1275 16-04-2021 10:10:00 5.8 C 72 % 1.15 C
Sensor: Nr:Datum:Temp:Feuchte:Taupunkt:
Aussen-T/F 1276 16-04-2021 10:15:00 5.9 C 72 % 1.25 C
1277 16-04-2021 10:20:00 6 C 71 % 1.15 C
1278 16-04-2021 10:25:00 6.1 C 71 % 1.25 C
1279 16-04-2021 10:30:00 6.3 C 70 % 1.24 C
1280 16-04-2021 10:35:00 6.4 C 67 % 0.73 C
1281 16-04-2021 10:40:00 6.5 C 67 % 0.83 C
1282 16-04-2021 10:45:00 6.7 C 65 % 0.6 C
1283 16-04-2021 10:50:00 6.9 C 64 % 0.57 C
1284 16-04-2021 10:55:00 7.1 C 63 % 0.55 C
1285 16-04-2021 11:00:00 7.2 C 62 % 0.42 C
1286 16-04-2021 11:05:00 7.3 C 63 % 0.74 C
1287 16-04-2021 11:10:00 7.4 C 61 % 0.38 C
1288 16-04-2021 11:15:00 7.4 C 60 % 0.16 C
1289 16-04-2021 11:20:00 7.4 C 62 % 0.61 C
1290 16-04-2021 11:25:00 7.6 C 62 % 0.8 C
1291 16-04-2021 11:30:00 7.7 C 60 % 0.44 C
1292 16-04-2021 11:35:00 7.8 C 59 % 0.3 C
1293 16-04-2021 11:40:00 7.9 C 58 % 0.16 C
1294 16-04-2021 11:45:00 8.1 C 58 % 0.35 C
1295 16-04-2021 11:50:00 8.1 C 58 % 0.35 C
1296 16-04-2021 11:55:00 8.2 C 57 % 0.2 C
1297 16-04-2021 12:00:00 8.2 C 57 % 0.2 C
1298 16-04-2021 12:05:00 8.2 C 58 % 0.44 C
1299 16-04-2021 12:10:00 8.2 C 57 % 0.2 C
1300 16-04-2021 12:15:00 8.2 C 58 % 0.44 C
Sensor: Nr:Datum:Temp:Feuchte:Taupunkt:
Aussen-T/F 1301 16-04-2021 12:20:00 8.2 C 56 % -0.04 C
1302 16-04-2021 12:25:00 8.3 C 57 % 0.3 C
1303 16-04-2021 12:30:00 8.3 C 57 % 0.3 C
1304 16-04-2021 12:35:00 8.6 C 55 % 0.08 C
1305 16-04-2021 12:40:00 8.7 C 55 % 0.18 C
1306 16-04-2021 12:45:00 8.8 C 54 % 0.02 C
1307 16-04-2021 12:50:00 8.8 C 54 % 0.02 C
1308 16-04-2021 12:55:00 8.9 C 54 % 0.11 C
1309 16-04-2021 13:00:00 9.1 C 56 % 0.8 C
1310 16-04-2021 13:05:00 9.2 C 52 % -0.13 C
1311 16-04-2021 13:10:00 9.2 C 52 % -0.13 C
1312 16-04-2021 13:15:00 9.3 C 52 % -0.04 C
1313 16-04-2021 13:20:00 9.3 C 53 % 0.23 C
1314 16-04-2021 13:25:00 9.3 C 51 % -0.3 C
1315 16-04-2021 13:30:00 9.1 C 51 % -0.49 C
1316 16-04-2021 13:35:00 8.9 C 55 % 0.36 C
1317 16-04-2021 13:40:00 8.8 C 55 % 0.27 C
1318 16-04-2021 13:45:00 8.8 C 57 % 0.76 C
1319 16-04-2021 13:50:00 8.7 C 57 % 0.67 C
1320 16-04-2021 13:55:00 8.7 C 55 % 0.18 C
1321 16-04-2021 14:00:00 8.7 C 56 % 0.43 C
1322 16-04-2021 14:05:00 8.7 C 57 % 0.67 C
1323 16-04-2021 14:10:00 8.8 C 57 % 0.76 C
1324 16-04-2021 14:15:00 8.8 C 57 % 0.76 C
1325 16-04-2021 14:20:00 8.8 C 57 % 0.76 C
Sensor: Nr:Datum:Temp:Feuchte:Taupunkt:
Aussen-T/F 1326 16-04-2021 14:25:00 8.8 C 57 % 0.76 C
1327 16-04-2021 14:30:00 8.8 C 58 % 1 C
1328 16-04-2021 14:35:00 8.9 C 58 % 1.1 C
1329 16-04-2021 14:40:00 8.8 C 57 % 0.76 C
1330 16-04-2021 14:45:00 8.8 C 58 % 1 C
1331 16-04-2021 14:50:00 8.8 C 57 % 0.76 C
1332 16-04-2021 14:55:00 8.8 C 58 % 1 C
1333 16-04-2021 15:00:00 8.9 C 58 % 1.1 C
1334 16-04-2021 15:05:00 8.9 C 58 % 1.1 C
1335 16-04-2021 15:10:00 8.9 C 58 % 1.1 C
1336 16-04-2021 15:15:00 8.9 C 59 % 1.34 C
1337 16-04-2021 15:20:00 8.9 C 58 % 1.1 C
1338 16-04-2021 15:25:00 8.9 C 57 % 0.86 C
1339 16-04-2021 15:30:00 8.9 C 58 % 1.1 C
1340 16-04-2021 15:35:00 8.9 C 58 % 1.1 C
1341 16-04-2021 15:40:00 8.9 C 58 % 1.1 C
1342 16-04-2021 15:45:00 8.9 C 57 % 0.86 C
1343 16-04-2021 15:50:00 8.9 C 58 % 1.1 C
1344 16-04-2021 15:55:00 8.9 C 58 % 1.1 C
1345 16-04-2021 16:00:00 9.1 C 59 % 1.52 C
1346 16-04-2021 16:05:00 9.2 C 57 % 1.14 C
1347 16-04-2021 16:10:00 9.2 C 57 % 1.14 C
1348 16-04-2021 16:15:00 9.2 C 57 % 1.14 C
1349 16-04-2021 16:20:00 9.3 C 58 % 1.47 C
1350 16-04-2021 16:25:00 9.5 C 60 % 2.13 C
Sensor: Nr:Datum:Temp:Feuchte:Taupunkt:
Aussen-T/F 1351 16-04-2021 16:30:00 9.6 C 58 % 1.75 C
1352 16-04-2021 16:35:00 9.3 C 58 % 1.47 C
1353 16-04-2021 16:40:00 9.3 C 59 % 1.71 C
1354 16-04-2021 16:45:00 9.3 C 59 % 1.71 C
1355 16-04-2021 16:50:00 9.3 C 59 % 1.71 C
1356 16-04-2021 16:55:00 9.3 C 59 % 1.71 C
1357 16-04-2021 17:00:00 9.4 C 60 % 2.04 C
1358 16-04-2021 17:05:00 9.5 C 61 % 2.37 C
1359 16-04-2021 17:10:00 9.6 C 60 % 2.23 C
1360 16-04-2021 17:15:00 9.7 C 59 % 2.09 C
1361 16-04-2021 17:20:00 9.7 C 59 % 2.09 C
1362 16-04-2021 17:25:00 9.6 C 58 % 1.75 C
1363 16-04-2021 17:30:00 9.6 C 60 % 2.23 C
1364 16-04-2021 17:35:00 9.6 C 59 % 1.99 C
1365 16-04-2021 17:40:00 9.4 C 59 % 1.81 C
1366 16-04-2021 17:45:00 9.4 C 59 % 1.81 C
1367 16-04-2021 17:50:00 9.3 C 59 % 1.71 C
1368 16-04-2021 17:55:00 9.3 C 60 % 1.95 C
1369 16-04-2021 18:00:00 9.3 C 59 % 1.71 C
1370 16-04-2021 18:05:00 9.3 C 60 % 1.95 C
1371 16-04-2021 18:10:00 9.4 C 60 % 2.04 C
1372 16-04-2021 18:15:00 9.4 C 60 % 2.04 C
1373 16-04-2021 18:20:00 9.4 C 60 % 2.04 C
1374 16-04-2021 18:25:00 9.4 C 60 % 2.04 C
1375 16-04-2021 18:30:00 9.4 C 60 % 2.04 C
Sensor: Nr:Datum:Temp:Feuchte:Taupunkt:
Aussen-T/F 1376 16-04-2021 18:35:00 9.4 C 60 % 2.04 C
1377 16-04-2021 18:40:00 9.4 C 60 % 2.04 C
1378 16-04-2021 18:45:00 9.4 C 60 % 2.04 C
1379 16-04-2021 18:50:00 9.4 C 60 % 2.04 C
1380 16-04-2021 18:55:00 9.3 C 61 % 2.18 C
1381 16-04-2021 19:00:00 9.3 C 61 % 2.18 C
1382 16-04-2021 19:05:00 9.3 C 62 % 2.4 C
1383 16-04-2021 19:10:00 9.3 C 61 % 2.18 C
1384 16-04-2021 19:15:00 9.2 C 62 % 2.31 C
1385 16-04-2021 19:20:00 9.2 C 64 % 2.76 C
1386 16-04-2021 19:25:00 9.2 C 62 % 2.31 C
1387 16-04-2021 19:30:00 9.1 C 63 % 2.44 C
1388 16-04-2021 19:35:00 9.1 C 63 % 2.44 C
1389 16-04-2021 19:40:00 9 C 65 % 2.78 C
1390 16-04-2021 19:45:00 9 C 67 % 3.21 C
1391 16-04-2021 19:50:00 8.9 C 67 % 3.12 C
1392 16-04-2021 19:55:00 8.8 C 68 % 3.23 C
1393 16-04-2021 20:00:00 8.8 C 69 % 3.44 C
1394 16-04-2021 20:05:00 8.7 C 69 % 3.34 C
1395 16-04-2021 20:10:00 8.6 C 69 % 3.24 C
1396 16-04-2021 20:15:00 8.4 C 70 % 3.26 C
1397 16-04-2021 20:20:00 8.2 C 70 % 3.06 C
1398 16-04-2021 20:25:00 7.9 C 71 % 2.98 C
1399 16-04-2021 20:30:00 7.8 C 73 % 3.27 C
1400 16-04-2021 20:35:00 7.6 C 73 % 3.08 C
Sensor: Nr:Datum:Temp:Feuchte:Taupunkt:
Aussen-T/F 1401 16-04-2021 20:40:00 7.3 C 74 % 2.98 C
1402 16-04-2021 20:45:00 7.2 C 75 % 3.07 C
1403 16-04-2021 20:50:00 7 C 75 % 2.88 C
1404 16-04-2021 20:55:00 6.8 C 76 % 2.87 C
1405 16-04-2021 21:00:00 6.6 C 77 % 2.86 C
1406 16-04-2021 21:05:00 6.4 C 77 % 2.67 C
1407 16-04-2021 21:10:00 6.3 C 78 % 2.75 C
1408 16-04-2021 21:15:00 6.2 C 78 % 2.66 C
1409 16-04-2021 21:20:00 6 C 79 % 2.64 C
1410 16-04-2021 21:25:00 5.9 C 80 % 2.72 C
1411 16-04-2021 21:30:00 5.8 C 80 % 2.62 C
1412 16-04-2021 21:35:00 5.8 C 81 % 2.8 C
1413 16-04-2021 21:40:00 5.8 C 81 % 2.8 C
1414 16-04-2021 21:45:00 5.8 C 81 % 2.8 C
1415 16-04-2021 21:50:00 5.8 C 81 % 2.8 C
1416 16-04-2021 21:55:00 5.8 C 82 % 2.97 C
1417 16-04-2021 22:00:00 5.8 C 81 % 2.8 C
1418 16-04-2021 22:05:00 5.7 C 81 % 2.7 C
1419 16-04-2021 22:10:00 5.6 C 82 % 2.78 C
1420 16-04-2021 22:15:00 5.5 C 82 % 2.68 C
1421 16-04-2021 22:20:00 5.4 C 82 % 2.58 C
1422 16-04-2021 22:25:00 5.4 C 83 % 2.75 C
1423 16-04-2021 22:30:00 5.4 C 83 % 2.75 C
1424 16-04-2021 22:35:00 5.4 C 83 % 2.75 C
1425 16-04-2021 22:40:00 5.4 C 84 % 2.92 C
Sensor: Nr:Datum:Temp:Feuchte:Taupunkt:
Aussen-T/F 1426 16-04-2021 22:45:00 5.3 C 84 % 2.82 C
1427 16-04-2021 22:50:00 5.3 C 84 % 2.82 C
1428 16-04-2021 22:55:00 5.2 C 84 % 2.72 C
1429 16-04-2021 23:00:00 5.1 C 84 % 2.63 C
1430 16-04-2021 23:05:00 5.1 C 84 % 2.63 C
1431 16-04-2021 23:10:00 5.1 C 84 % 2.63 C
1432 16-04-2021 23:15:00 5 C 85 % 2.69 C
1433 16-04-2021 23:20:00 5 C 85 % 2.69 C
1434 16-04-2021 23:25:00 4.9 C 85 % 2.6 C
1435 16-04-2021 23:30:00 4.8 C 85 % 2.5 C
1436 16-04-2021 23:35:00 4.7 C 85 % 2.4 C
1437 16-04-2021 23:40:00 4.7 C 85 % 2.4 C
1438 16-04-2021 23:45:00 4.6 C 85 % 2.3 C
1439 16-04-2021 23:50:00 4.5 C 85 % 2.2 C
1440 16-04-2021 23:55:00 4.4 C 86 % 2.27 C
1441 17-04-2021 00:00:00 4.4 C 86 % 2.27 C
1442 17-04-2021 00:05:00 4.4 C 86 % 2.27 C
1443 17-04-2021 00:10:00 4.4 C 87 % 2.43 C
1444 17-04-2021 00:15:00 4.4 C 87 % 2.43 C
1445 17-04-2021 00:20:00 4.4 C 87 % 2.43 C
1446 17-04-2021 00:25:00 4.4 C 86 % 2.27 C
1447 17-04-2021 00:30:00 4.4 C 86 % 2.27 C
1448 17-04-2021 00:35:00 4.4 C 86 % 2.27 C
1449 17-04-2021 00:40:00 4.4 C 87 % 2.43 C
1450 17-04-2021 00:45:00 4.4 C 87 % 2.43 C
Sensor: Nr:Datum:Temp:Feuchte:Taupunkt:
Aussen-T/F 1451 17-04-2021 00:50:00 4.4 C 87 % 2.43 C
1452 17-04-2021 00:55:00 4.4 C 87 % 2.43 C
1453 17-04-2021 01:00:00 4.4 C 87 % 2.43 C
1454 17-04-2021 01:05:00 4.4 C 87 % 2.43 C
1455 17-04-2021 01:10:00 4.4 C 87 % 2.43 C
1456 17-04-2021 01:15:00 4.4 C 87 % 2.43 C
1457 17-04-2021 01:20:00 4.4 C 86 % 2.27 C
1458 17-04-2021 01:25:00 4.3 C 86 % 2.17 C
1459 17-04-2021 01:30:00 4.3 C 86 % 2.17 C
1460 17-04-2021 01:35:00 4.2 C 86 % 2.07 C
1461 17-04-2021 01:40:00 4.2 C 87 % 2.23 C
1462 17-04-2021 01:45:00 4.1 C 87 % 2.14 C
1463 17-04-2021 01:50:00 4.1 C 87 % 2.14 C
1464 17-04-2021 01:55:00 4.1 C 88 % 2.3 C
1465 17-04-2021 02:00:00 4.1 C 88 % 2.3 C
1466 17-04-2021 02:05:00 4.1 C 88 % 2.3 C
1467 17-04-2021 02:10:00 4.1 C 88 % 2.3 C
1468 17-04-2021 02:15:00 4.1 C 88 % 2.3 C
1469 17-04-2021 02:20:00 4.1 C 88 % 2.3 C
1470 17-04-2021 02:25:00 4 C 88 % 2.2 C
1471 17-04-2021 02:30:00 4 C 88 % 2.2 C
1472 17-04-2021 02:35:00 4 C 88 % 2.2 C
1473 17-04-2021 02:40:00 4 C 88 % 2.2 C
1474 17-04-2021 02:45:00 3.9 C 88 % 2.1 C
1475 17-04-2021 02:50:00 3.9 C 88 % 2.1 C
Sensor: Nr:Datum:Temp:Feuchte:Taupunkt:
Aussen-T/F 1476 17-04-2021 02:55:00 3.9 C 88 % 2.1 C
1477 17-04-2021 03:00:00 3.9 C 88 % 2.1 C
1478 17-04-2021 03:05:00 3.9 C 89 % 2.26 C
1479 17-04-2021 03:10:00 3.9 C 88 % 2.1 C
1480 17-04-2021 03:15:00 3.9 C 88 % 2.1 C
1481 17-04-2021 03:20:00 3.9 C 88 % 2.1 C
1482 17-04-2021 03:25:00 3.9 C 88 % 2.1 C
1483 17-04-2021 03:30:00 3.9 C 88 % 2.1 C
1484 17-04-2021 03:35:00 3.9 C 88 % 2.1 C
1485 17-04-2021 03:40:00 3.9 C 88 % 2.1 C
1486 17-04-2021 03:45:00 3.9 C 88 % 2.1 C
1487 17-04-2021 03:50:00 3.8 C 88 % 2 C
1488 17-04-2021 03:55:00 3.8 C 88 % 2 C
1489 17-04-2021 04:00:00 3.8 C 88 % 2 C
1490 17-04-2021 04:05:00 3.8 C 88 % 2 C
1491 17-04-2021 04:10:00 3.7 C 88 % 1.9 C
1492 17-04-2021 04:15:00 3.6 C 88 % 1.8 C
1493 17-04-2021 04:20:00 3.6 C 89 % 1.96 C
1494 17-04-2021 04:25:00 3.6 C 88 % 1.8 C
1495 17-04-2021 04:30:00 3.4 C 88 % 1.61 C
1496 17-04-2021 04:35:00 3.4 C 88 % 1.61 C
1497 17-04-2021 04:40:00 3.3 C 89 % 1.67 C
1498 17-04-2021 04:45:00 3.3 C 89 % 1.67 C
1499 17-04-2021 04:50:00 3.2 C 89 % 1.57 C
1500 17-04-2021 04:55:00 3.1 C 88 % 1.31 C
Sensor: Nr:Datum:Temp:Feuchte:Taupunkt:
Aussen-T/F 1501 17-04-2021 05:00:00 2.9 C 88 % 1.11 C
1502 17-04-2021 05:05:00 2.8 C 89 % 1.17 C
1503 17-04-2021 05:10:00 2.7 C 89 % 1.07 C
1504 17-04-2021 05:15:00 2.5 C 89 % 0.88 C
1505 17-04-2021 05:20:00 2.4 C 89 % 0.78 C
1506 17-04-2021 05:25:00 2.3 C 90 % 0.83 C
1507 17-04-2021 05:30:00 2.3 C 90 % 0.83 C
1508 17-04-2021 05:35:00 2.3 C 90 % 0.83 C
1509 17-04-2021 05:40:00 2.3 C 91 % 0.99 C
1510 17-04-2021 05:45:00 2.3 C 90 % 0.83 C
1511 17-04-2021 05:50:00 2.2 C 91 % 0.89 C
1512 17-04-2021 05:55:00 2.2 C 91 % 0.89 C
1513 17-04-2021 06:00:00 2.1 C 91 % 0.79 C
1514 17-04-2021 06:05:00 1.9 C 90 % 0.44 C
1515 17-04-2021 06:10:00 1.8 C 90 % 0.34 C
1516 17-04-2021 06:15:00 1.7 C 91 % 0.39 C
1517 17-04-2021 06:20:00 1.7 C 91 % 0.39 C
1518 17-04-2021 06:25:00 1.6 C 91 % 0.29 C
1519 17-04-2021 06:30:00 1.5 C 91 % 0.19 C
1520 17-04-2021 06:35:00 1.4 C 91 % 0.1 C
1521 17-04-2021 06:40:00 1.4 C 92 % 0.25 C
1522 17-04-2021 06:45:00 1.4 C 92 % 0.25 C
1523 17-04-2021 06:50:00 1.3 C 92 % 0.15 C
1524 17-04-2021 06:55:00 1.3 C 92 % 0.15 C
1525 17-04-2021 07:00:00 1.3 C 92 % 0.15 C
Sensor: Nr:Datum:Temp:Feuchte:Taupunkt:
Aussen-T/F 1526 17-04-2021 07:05:00 1.3 C 92 % 0.15 C
1527 17-04-2021 07:10:00 1.3 C 92 % 0.15 C
1528 17-04-2021 07:15:00 1.4 C 93 % 0.4 C
1529 17-04-2021 07:20:00 1.4 C 93 % 0.4 C
1530 17-04-2021 07:25:00 1.5 C 93 % 0.49 C
1531 17-04-2021 07:30:00 1.5 C 93 % 0.49 C
1532 17-04-2021 07:35:00 1.6 C 93 % 0.59 C
1533 17-04-2021 07:40:00 1.6 C 93 % 0.59 C
1534 17-04-2021 07:45:00 1.7 C 93 % 0.69 C
1535 17-04-2021 07:50:00 1.8 C 93 % 0.79 C
1536 17-04-2021 07:55:00 1.8 C 93 % 0.79 C
1537 17-04-2021 08:00:00 1.9 C 94 % 1.04 C
1538 17-04-2021 08:05:00 2.1 C 94 % 1.24 C
1539 17-04-2021 08:10:00 2.2 C 94 % 1.34 C
1540 17-04-2021 08:15:00 2.3 C 94 % 1.44 C
1541 17-04-2021 08:20:00 2.4 C 94 % 1.54 C
1542 17-04-2021 08:25:00 2.5 C 94 % 1.63 C
1543 17-04-2021 08:30:00 2.6 C 93 % 1.59 C
1544 17-04-2021 08:35:00 2.6 C 94 % 1.73 C
1545 17-04-2021 08:40:00 2.7 C 93 % 1.68 C
1546 17-04-2021 08:45:00 2.7 C 93 % 1.68 C
1547 17-04-2021 08:50:00 2.8 C 93 % 1.78 C
1548 17-04-2021 08:55:00 2.9 C 94 % 2.03 C
1549 17-04-2021 09:00:00 3.2 C 94 % 2.33 C
1550 17-04-2021 09:05:00 3.4 C 94 % 2.53 C
Sensor: Nr:Datum:Temp:Feuchte:Taupunkt:
Aussen-T/F 1551 17-04-2021 09:10:00 3.6 C 94 % 2.73 C
1552 17-04-2021 09:15:00 3.8 C 93 % 2.77 C
1553 17-04-2021 09:20:00 3.9 C 93 % 2.87 C
1554 17-04-2021 09:25:00 4.1 C 93 % 3.07 C
1555 17-04-2021 09:30:00 4.3 C 92 % 3.12 C
1556 17-04-2021 09:35:00 4.4 C 92 % 3.22 C
1557 17-04-2021 09:40:00 4.6 C 91 % 3.26 C
1558 17-04-2021 09:45:00 4.8 C 89 % 3.14 C
1559 17-04-2021 09:50:00 5.1 C 86 % 2.96 C
1560 17-04-2021 09:55:00 5.4 C 85 % 3.09 C
1561 17-04-2021 10:00:00 5.8 C 84 % 3.31 C
1562 17-04-2021 10:05:00 6.3 C 78 % 2.75 C
1563 17-04-2021 10:10:00 6.8 C 72 % 2.12 C
1564 17-04-2021 10:15:00 7.2 C 72 % 2.5 C
1565 17-04-2021 10:20:00 7.4 C 70 % 2.3 C
1566 17-04-2021 10:25:00 7.7 C 72 % 2.98 C
1567 17-04-2021 10:30:00 7.7 C 70 % 2.58 C
1568 17-04-2021 10:35:00 7.8 C 67 % 2.07 C
1569 17-04-2021 10:40:00 8 C 64 % 1.62 C
1570 17-04-2021 10:45:00 8.2 C 63 % 1.59 C
1571 17-04-2021 10:50:00 8.3 C 60 % 1 C
1572 17-04-2021 10:55:00 8.5 C 59 % 0.96 C
1573 17-04-2021 11:00:00 8.8 C 55 % 0.27 C
1574 17-04-2021 11:05:00 9.1 C 53 % 0.04 C
1575 17-04-2021 11:10:00 9.3 C 54 % 0.48 C
Sensor: Nr:Datum:Temp:Feuchte:Taupunkt:
Aussen-T/F 1576 17-04-2021 11:15:00 9.5 C 52 % 0.15 C
1577 17-04-2021 11:20:00 9.6 C 52 % 0.24 C
1578 17-04-2021 11:25:00 9.7 C 53 % 0.6 C
1579 17-04-2021 11:30:00 9.9 C 52 % 0.52 C
1580 17-04-2021 11:35:00 10.1 C 51 % 0.44 C
1581 17-04-2021 11:40:00 10.2 C 50 % 0.26 C
1582 17-04-2021 11:45:00 10.3 C 49 % 0.07 C
1583 17-04-2021 11:50:00 10.3 C 49 % 0.07 C
1584 17-04-2021 11:55:00 10.1 C 49 % -0.11 C
1585 17-04-2021 12:00:00 10.2 C 49 % -0.02 C
1586 17-04-2021 12:05:00 10.3 C 49 % 0.07 C
1587 17-04-2021 12:10:00 10.6 C 49 % 0.35 C
1588 17-04-2021 12:15:00 10.6 C 48 % 0.06 C
1589 17-04-2021 12:20:00 10.7 C 47 % -0.14 C
1590 17-04-2021 12:25:00 10.7 C 48 % 0.15 C
1591 17-04-2021 12:30:00 10.8 C 49 % 0.53 C
1592 17-04-2021 12:35:00 10.9 C 48 % 0.34 C
1593 17-04-2021 12:40:00 11.2 C 49 % 0.9 C
1594 17-04-2021 12:45:00 11.2 C 46 % 0.02 C
1595 17-04-2021 12:50:00 11 C 46 % -0.16 C
1596 17-04-2021 12:55:00 10.9 C 46 % -0.25 C
1597 17-04-2021 13:00:00 10.9 C 49 % 0.62 C
1598 17-04-2021 13:05:00 11.3 C 47 % 0.41 C
1599 17-04-2021 13:10:00 11.4 C 47 % 0.5 C
1600 17-04-2021 13:15:00 11.6 C 46 % 0.39 C
Sensor: Nr:Datum:Temp:Feuchte:Taupunkt:
Aussen-T/F 1601 17-04-2021 13:20:00 11.7 C 45 % 0.18 C
1602 17-04-2021 13:25:00 11.9 C 44 % 0.05 C
1603 17-04-2021 13:30:00 11.8 C 43 % -0.36 C
1604 17-04-2021 13:35:00 11.7 C 46 % 0.48 C
1605 17-04-2021 13:40:00 11.8 C 43 % -0.36 C
1606 17-04-2021 13:45:00 11.8 C 42 % -0.68 C
1607 17-04-2021 13:50:00 11.8 C 42 % -0.68 C
1608 17-04-2021 13:55:00 11.8 C 43 % -0.36 C
1609 17-04-2021 14:00:00 11.8 C 42 % -0.68 C
1610 17-04-2021 14:05:00 11.6 C 42 % -0.86 C
1611 17-04-2021 14:10:00 11.5 C 45 % 0 C
1612 17-04-2021 14:15:00 11.6 C 43 % -0.54 C
1613 17-04-2021 14:20:00 11.7 C 45 % 0.18 C
1614 17-04-2021 14:25:00 12.2 C 44 % 0.32 C
1615 17-04-2021 14:30:00 12.7 C 44 % 0.78 C
1616 17-04-2021 14:35:00 12.7 C 41 % -0.2 C
1617 17-04-2021 14:40:00 12.5 C 42 % -0.05 C
1618 17-04-2021 14:45:00 12.4 C 43 % 0.19 C
1619 17-04-2021 14:50:00 12.3 C 43 % 0.1 C
1620 17-04-2021 14:55:00 12.1 C 44 % 0.23 C
1621 17-04-2021 15:00:00 11.9 C 46 % 0.66 C
1622 17-04-2021 15:05:00 11.8 C 46 % 0.57 C
1623 17-04-2021 15:10:00 11.7 C 47 % 0.78 C
1624 17-04-2021 15:15:00 11.5 C 48 % 0.89 C
1625 17-04-2021 15:20:00 11.2 C 51 % 1.45 C
Sensor: Nr:Datum:Temp:Feuchte:Taupunkt:
Aussen-T/F 1626 17-04-2021 15:25:00 10.8 C 52 % 1.35 C
1627 17-04-2021 15:30:00 10.6 C 53 % 1.43 C
1628 17-04-2021 15:35:00 10.3 C 54 % 1.41 C
1629 17-04-2021 15:40:00 10.1 C 55 % 1.48 C
1630 17-04-2021 15:45:00 9.9 C 56 % 1.55 C
1631 17-04-2021 15:50:00 9.9 C 56 % 1.55 C
1632 17-04-2021 15:55:00 9.8 C 56 % 1.45 C
1633 17-04-2021 16:00:00 9.7 C 57 % 1.61 C
1634 17-04-2021 16:05:00 9.7 C 57 % 1.61 C
1635 17-04-2021 16:10:00 9.8 C 58 % 1.94 C
1636 17-04-2021 16:15:00 9.9 C 56 % 1.55 C
1637 17-04-2021 16:20:00 10 C 57 % 1.89 C
1638 17-04-2021 16:25:00 10.1 C 57 % 1.98 C
1639 17-04-2021 16:30:00 9.9 C 56 % 1.55 C
1640 17-04-2021 16:35:00 9.9 C 57 % 1.79 C
1641 17-04-2021 16:40:00 10 C 57 % 1.89 C
1642 17-04-2021 16:45:00 10.1 C 57 % 1.98 C
1643 17-04-2021 16:50:00 10.2 C 57 % 2.07 C
1644 17-04-2021 16:55:00 10.2 C 57 % 2.07 C
1645 17-04-2021 17:00:00 10.2 C 55 % 1.58 C
1646 17-04-2021 17:05:00 10.3 C 55 % 1.67 C
1647 17-04-2021 17:10:00 10.3 C 55 % 1.67 C
1648 17-04-2021 17:15:00 10.3 C 55 % 1.67 C
1649 17-04-2021 17:20:00 10.3 C 55 % 1.67 C
1650 17-04-2021 17:25:00 10.3 C 54 % 1.41 C
Sensor: Nr:Datum:Temp:Feuchte:Taupunkt:
Aussen-T/F 1651 17-04-2021 17:30:00 10.2 C 53 % 1.06 C
1652 17-04-2021 17:35:00 10.2 C 53 % 1.06 C
1653 17-04-2021 17:40:00 10.2 C 53 % 1.06 C
1654 17-04-2021 17:45:00 10.2 C 53 % 1.06 C
1655 17-04-2021 17:50:00 10.2 C 53 % 1.06 C
1656 17-04-2021 17:55:00 10.2 C 53 % 1.06 C
1657 17-04-2021 18:00:00 10.2 C 54 % 1.32 C
1658 17-04-2021 18:05:00 10.2 C 53 % 1.06 C
1659 17-04-2021 18:10:00 10.2 C 53 % 1.06 C
1660 17-04-2021 18:15:00 10.2 C 54 % 1.32 C
1661 17-04-2021 18:20:00 10.3 C 53 % 1.15 C
1662 17-04-2021 18:25:00 10.5 C 53 % 1.34 C
1663 17-04-2021 18:30:00 10.6 C 53 % 1.43 C
1664 17-04-2021 18:35:00 10.6 C 54 % 1.69 C
1665 17-04-2021 18:40:00 10.5 C 54 % 1.6 C
1666 17-04-2021 18:45:00 10.6 C 54 % 1.69 C
1667 17-04-2021 18:50:00 10.5 C 55 % 1.85 C
1668 17-04-2021 18:55:00 10.4 C 55 % 1.76 C
1669 17-04-2021 19:00:00 10.6 C 56 % 2.2 C
1670 17-04-2021 19:05:00 10.8 C 55 % 2.13 C
1671 17-04-2021 19:10:00 10.9 C 54 % 1.97 C
1672 17-04-2021 19:15:00 10.9 C 53 % 1.71 C
1673 17-04-2021 19:20:00 10.9 C 54 % 1.97 C
1674 17-04-2021 19:25:00 10.8 C 55 % 2.13 C
1675 17-04-2021 19:30:00 10.7 C 55 % 2.04 C
Sensor: Nr:Datum:Temp:Feuchte:Taupunkt:
Aussen-T/F 1676 17-04-2021 19:35:00 10.5 C 53 % 1.34 C
1677 17-04-2021 19:40:00 10.4 C 53 % 1.25 C
1678 17-04-2021 19:45:00 10.4 C 53 % 1.25 C
1679 17-04-2021 19:50:00 10.3 C 53 % 1.15 C
1680 17-04-2021 19:55:00 10.2 C 54 % 1.32 C
1681 17-04-2021 20:00:00 10.2 C 53 % 1.06 C
1682 17-04-2021 20:05:00 10.1 C 54 % 1.23 C
1683 17-04-2021 20:10:00 10.1 C 54 % 1.23 C
1684 17-04-2021 20:15:00 10 C 54 % 1.13 C
1685 17-04-2021 20:20:00 9.9 C 55 % 1.3 C
1686 17-04-2021 20:25:00 9.9 C 54 % 1.04 C
1687 17-04-2021 20:30:00 9.9 C 56 % 1.55 C
1688 17-04-2021 20:35:00 9.8 C 56 % 1.45 C
1689 17-04-2021 20:40:00 9.8 C 57 % 1.7 C
1690 17-04-2021 20:45:00 9.7 C 58 % 1.85 C
1691 17-04-2021 20:50:00 9.7 C 62 % 2.78 C
1692 17-04-2021 20:55:00 9.5 C 62 % 2.59 C
1693 17-04-2021 21:00:00 9.3 C 63 % 2.63 C
1694 17-04-2021 21:05:00 9.2 C 64 % 2.76 C
1695 17-04-2021 21:10:00 9.1 C 64 % 2.66 C
1696 17-04-2021 21:15:00 9 C 65 % 2.78 C
1697 17-04-2021 21:20:00 8.9 C 66 % 2.9 C
1698 17-04-2021 21:25:00 8.8 C 67 % 3.02 C
1699 17-04-2021 21:30:00 8.7 C 68 % 3.13 C
1700 17-04-2021 21:35:00 8.6 C 68 % 3.04 C
Sensor: Nr:Datum:Temp:Feuchte:Taupunkt:
Aussen-T/F 1701 17-04-2021 21:40:00 8.4 C 69 % 3.05 C
1702 17-04-2021 21:45:00 8.4 C 69 % 3.05 C
1703 17-04-2021 21:50:00 8.3 C 70 % 3.16 C
1704 17-04-2021 21:55:00 8.2 C 70 % 3.06 C
1705 17-04-2021 22:00:00 8.2 C 70 % 3.06 C
1706 17-04-2021 22:05:00 8.1 C 70 % 2.97 C
1707 17-04-2021 22:10:00 8 C 70 % 2.87 C
1708 17-04-2021 22:15:00 8 C 71 % 3.07 C
1709 17-04-2021 22:20:00 7.9 C 71 % 2.98 C
1710 17-04-2021 22:25:00 7.9 C 71 % 2.98 C
1711 17-04-2021 22:30:00 7.9 C 70 % 2.78 C
1712 17-04-2021 22:35:00 7.9 C 69 % 2.57 C
1713 17-04-2021 22:40:00 7.9 C 71 % 2.98 C
1714 17-04-2021 22:45:00 7.9 C 71 % 2.98 C
1715 17-04-2021 22:50:00 7.9 C 71 % 2.98 C
1716 17-04-2021 22:55:00 7.9 C 72 % 3.17 C
1717 17-04-2021 23:00:00 7.9 C 73 % 3.37 C
1718 17-04-2021 23:05:00 7.9 C 73 % 3.37 C
1719 17-04-2021 23:10:00 7.8 C 73 % 3.27 C
1720 17-04-2021 23:15:00 7.8 C 73 % 3.27 C
1721 17-04-2021 23:20:00 7.8 C 73 % 3.27 C
1722 17-04-2021 23:25:00 7.7 C 73 % 3.18 C
1723 17-04-2021 23:30:00 7.7 C 74 % 3.37 C
1724 17-04-2021 23:35:00 7.7 C 75 % 3.56 C
1725 17-04-2021 23:40:00 7.7 C 75 % 3.56 C
Sensor: Nr:Datum:Temp:Feuchte:Taupunkt:
Aussen-T/F 1726 17-04-2021 23:45:00 7.7 C 75 % 3.56 C
1727 17-04-2021 23:50:00 7.6 C 75 % 3.46 C
1728 17-04-2021 23:55:00 7.6 C 75 % 3.46 C
1729 18-04-2021 00:00:00 7.6 C 75 % 3.46 C
1730 18-04-2021 00:05:00 7.5 C 75 % 3.36 C
1731 18-04-2021 00:10:00 7.5 C 75 % 3.36 C
1732 18-04-2021 00:15:00 7.4 C 75 % 3.27 C
1733 18-04-2021 00:20:00 7.4 C 75 % 3.27 C
1734 18-04-2021 00:25:00 7.3 C 75 % 3.17 C
1735 18-04-2021 00:30:00 7.3 C 75 % 3.17 C
1736 18-04-2021 00:35:00 7.3 C 76 % 3.36 C
1737 18-04-2021 00:40:00 7.3 C 76 % 3.36 C
1738 18-04-2021 00:45:00 7.3 C 76 % 3.36 C
1739 18-04-2021 00:50:00 7.3 C 76 % 3.36 C
1740 18-04-2021 00:55:00 7.3 C 77 % 3.54 C
1741 18-04-2021 01:00:00 7.3 C 77 % 3.54 C
1742 18-04-2021 01:05:00 7.2 C 77 % 3.45 C
1743 18-04-2021 01:10:00 7.2 C 77 % 3.45 C
1744 18-04-2021 01:15:00 7.2 C 77 % 3.45 C
1745 18-04-2021 01:20:00 7.2 C 78 % 3.63 C
1746 18-04-2021 01:25:00 7.1 C 77 % 3.35 C
1747 18-04-2021 01:30:00 7.1 C 78 % 3.53 C
1748 18-04-2021 01:35:00 7.1 C 78 % 3.53 C
1749 18-04-2021 01:40:00 7.1 C 78 % 3.53 C
1750 18-04-2021 01:45:00 7.1 C 78 % 3.53 C
Sensor: Nr:Datum:Temp:Feuchte:Taupunkt:
Aussen-T/F 1751 18-04-2021 01:50:00 7.1 C 79 % 3.71 C
1752 18-04-2021 01:55:00 7.1 C 78 % 3.53 C
1753 18-04-2021 02:00:00 7.1 C 79 % 3.71 C
1754 18-04-2021 02:05:00 7 C 78 % 3.43 C
1755 18-04-2021 02:10:00 7 C 78 % 3.43 C
1756 18-04-2021 02:15:00 7 C 79 % 3.61 C
1757 18-04-2021 02:20:00 7 C 79 % 3.61 C
1758 18-04-2021 02:25:00 6.9 C 79 % 3.52 C
1759 18-04-2021 02:30:00 6.8 C 78 % 3.24 C
1760 18-04-2021 02:35:00 6.7 C 77 % 2.96 C
1761 18-04-2021 02:40:00 6.6 C 78 % 3.05 C
1762 18-04-2021 02:45:00 6.4 C 78 % 2.85 C
1763 18-04-2021 02:50:00 6.4 C 79 % 3.03 C
1764 18-04-2021 02:55:00 6.3 C 79 % 2.93 C
1765 18-04-2021 03:00:00 6.3 C 80 % 3.11 C
1766 18-04-2021 03:05:00 6.3 C 80 % 3.11 C
1767 18-04-2021 03:10:00 6.2 C 80 % 3.01 C
1768 18-04-2021 03:15:00 6.2 C 79 % 2.84 C
1769 18-04-2021 03:20:00 6.1 C 79 % 2.74 C
1770 18-04-2021 03:25:00 6 C 80 % 2.82 C
1771 18-04-2021 03:30:00 6 C 81 % 2.99 C
1772 18-04-2021 03:35:00 6.1 C 81 % 3.09 C
1773 18-04-2021 03:40:00 6.1 C 82 % 3.26 C
1774 18-04-2021 03:45:00 6.1 C 82 % 3.26 C
1775 18-04-2021 03:50:00 6.2 C 82 % 3.36 C
Sensor: Nr:Datum:Temp:Feuchte:Taupunkt:
Aussen-T/F 1776 18-04-2021 03:55:00 6.2 C 81 % 3.19 C
1777 18-04-2021 04:00:00 6.2 C 81 % 3.19 C
1778 18-04-2021 04:05:00 6.2 C 81 % 3.19 C
1779 18-04-2021 04:10:00 6.2 C 81 % 3.19 C
1780 18-04-2021 04:15:00 6.3 C 82 % 3.46 C
1781 18-04-2021 04:20:00 6.3 C 81 % 3.29 C
1782 18-04-2021 04:25:00 6.3 C 81 % 3.29 C
1783 18-04-2021 04:30:00 6.3 C 81 % 3.29 C
1784 18-04-2021 04:35:00 6.3 C 81 % 3.29 C
1785 18-04-2021 04:40:00 6.3 C 80 % 3.11 C
1786 18-04-2021 04:45:00 6.4 C 80 % 3.21 C
1787 18-04-2021 04:50:00 6.4 C 81 % 3.38 C
1788 18-04-2021 04:55:00 6.4 C 80 % 3.21 C
1789 18-04-2021 05:00:00 6.5 C 79 % 3.13 C
1790 18-04-2021 05:05:00 6.5 C 78 % 2.95 C
1791 18-04-2021 05:10:00 6.6 C 78 % 3.05 C
1792 18-04-2021 05:15:00 6.6 C 79 % 3.23 C
1793 18-04-2021 05:20:00 6.6 C 79 % 3.23 C
1794 18-04-2021 05:25:00 6.7 C 80 % 3.5 C
1795 18-04-2021 05:30:00 6.7 C 80 % 3.5 C
1796 18-04-2021 05:35:00 6.7 C 80 % 3.5 C
1797 18-04-2021 05:40:00 6.7 C 79 % 3.32 C
1798 18-04-2021 05:45:00 6.7 C 79 % 3.32 C
1799 18-04-2021 05:50:00 6.7 C 79 % 3.32 C
1800 18-04-2021 05:55:00 6.7 C 77 % 2.96 C
Sensor: Nr:Datum:Temp:Feuchte:Taupunkt:
Aussen-T/F 1801 18-04-2021 06:00:00 6.7 C 79 % 3.32 C
1802 18-04-2021 06:05:00 6.8 C 78 % 3.24 C
1803 18-04-2021 06:10:00 6.8 C 78 % 3.24 C
1804 18-04-2021 06:15:00 6.8 C 79 % 3.42 C
1805 18-04-2021 06:20:00 6.8 C 77 % 3.06 C
1806 18-04-2021 06:25:00 6.8 C 77 % 3.06 C
1807 18-04-2021 06:30:00 6.8 C 78 % 3.24 C
1808 18-04-2021 06:35:00 6.8 C 78 % 3.24 C
1809 18-04-2021 06:40:00 6.8 C 79 % 3.42 C
1810 18-04-2021 06:45:00 6.8 C 79 % 3.42 C
1811 18-04-2021 06:50:00 6.8 C 79 % 3.42 C
1812 18-04-2021 06:55:00 6.7 C 79 % 3.32 C
1813 18-04-2021 07:00:00 6.7 C 79 % 3.32 C
1814 18-04-2021 07:05:00 6.7 C 78 % 3.14 C
1815 18-04-2021 07:10:00 6.7 C 79 % 3.32 C
1816 18-04-2021 07:15:00 6.7 C 79 % 3.32 C
1817 18-04-2021 07:20:00 6.8 C 78 % 3.24 C
1818 18-04-2021 07:25:00 6.8 C 78 % 3.24 C
1819 18-04-2021 07:30:00 6.8 C 78 % 3.24 C
1820 18-04-2021 07:35:00 6.9 C 78 % 3.34 C
1821 18-04-2021 07:40:00 6.9 C 78 % 3.34 C
1822 18-04-2021 07:45:00 6.9 C 78 % 3.34 C
1823 18-04-2021 07:50:00 7 C 78 % 3.43 C
1824 18-04-2021 07:55:00 7 C 78 % 3.43 C
1825 18-04-2021 08:00:00 7 C 78 % 3.43 C
Sensor: Nr:Datum:Temp:Feuchte:Taupunkt:
Aussen-T/F 1826 18-04-2021 08:05:00 7.1 C 77 % 3.35 C
1827 18-04-2021 08:10:00 7.1 C 77 % 3.35 C
1828 18-04-2021 08:15:00 7.1 C 77 % 3.35 C
1829 18-04-2021 08:20:00 7.2 C 77 % 3.45 C
1830 18-04-2021 08:25:00 7.2 C 77 % 3.45 C
1831 18-04-2021 08:30:00 7.3 C 77 % 3.54 C
1832 18-04-2021 08:35:00 7.3 C 77 % 3.54 C
1833 18-04-2021 08:40:00 7.3 C 77 % 3.54 C
1834 18-04-2021 08:45:00 7.4 C 78 % 3.82 C
1835 18-04-2021 08:50:00 7.4 C 77 % 3.64 C
1836 18-04-2021 08:55:00 7.5 C 77 % 3.74 C
1837 18-04-2021 09:00:00 7.6 C 76 % 3.65 C
1838 18-04-2021 09:05:00 7.6 C 76 % 3.65 C
1839 18-04-2021 09:10:00 7.7 C 75 % 3.56 C
1840 18-04-2021 09:15:00 7.7 C 74 % 3.37 C
1841 18-04-2021 09:20:00 7.8 C 75 % 3.65 C
1842 18-04-2021 09:25:00 7.8 C 75 % 3.65 C
1843 18-04-2021 09:30:00 7.8 C 75 % 3.65 C
1844 18-04-2021 09:35:00 7.9 C 75 % 3.75 C
1845 18-04-2021 09:40:00 7.9 C 75 % 3.75 C
1846 18-04-2021 09:45:00 7.9 C 76 % 3.94 C
1847 18-04-2021 09:50:00 7.9 C 76 % 3.94 C
1848 18-04-2021 09:55:00 7.9 C 76 % 3.94 C
1849 18-04-2021 10:00:00 7.8 C 77 % 4.03 C
1850 18-04-2021 10:05:00 7.8 C 78 % 4.21 C
Sensor: Nr:Datum:Temp:Feuchte:Taupunkt:
Aussen-T/F 1851 18-04-2021 10:10:00 7.8 C 79 % 4.39 C
1852 18-04-2021 10:15:00 7.8 C 78 % 4.21 C
1853 18-04-2021 10:20:00 7.8 C 78 % 4.21 C
1854 18-04-2021 10:25:00 7.8 C 79 % 4.39 C
1855 18-04-2021 10:30:00 7.8 C 79 % 4.39 C
1856 18-04-2021 10:35:00 7.7 C 79 % 4.3 C
1857 18-04-2021 10:40:00 7.7 C 80 % 4.47 C
1858 18-04-2021 10:45:00 7.7 C 81 % 4.65 C
1859 18-04-2021 10:50:00 7.7 C 82 % 4.83 C
1860 18-04-2021 10:55:00 7.8 C 83 % 5.1 C
1861 18-04-2021 11:00:00 7.8 C 82 % 4.92 C
1862 18-04-2021 11:05:00 7.8 C 81 % 4.75 C
1863 18-04-2021 11:10:00 7.9 C 82 % 5.02 C
1864 18-04-2021 11:15:00 7.9 C 82 % 5.02 C
1865 18-04-2021 11:20:00 7.9 C 82 % 5.02 C
1866 18-04-2021 11:25:00 8 C 81 % 4.94 C
1867 18-04-2021 11:30:00 8 C 81 % 4.94 C
1868 18-04-2021 11:35:00 8 C 81 % 4.94 C
1869 18-04-2021 11:40:00 8 C 81 % 4.94 C
1870 18-04-2021 11:45:00 8.1 C 81 % 5.04 C
1871 18-04-2021 11:50:00 8.2 C 80 % 4.96 C
1872 18-04-2021 11:55:00 8.3 C 80 % 5.06 C
1873 18-04-2021 12:00:00 8.4 C 80 % 5.16 C
1874 18-04-2021 12:05:00 8.4 C 79 % 4.98 C
1875 18-04-2021 12:10:00 8.5 C 79 % 5.07 C
Sensor: Nr:Datum:Temp:Feuchte:Taupunkt:
Aussen-T/F 1876 18-04-2021 12:15:00 8.6 C 78 % 4.99 C
1877 18-04-2021 12:20:00 8.6 C 78 % 4.99 C
1878 18-04-2021 12:25:00 8.7 C 78 % 5.08 C
1879 18-04-2021 12:30:00 8.8 C 78 % 5.18 C
1880 18-04-2021 12:35:00 8.8 C 77 % 5 C
1881 18-04-2021 12:40:00 8.9 C 77 % 5.09 C
1882 18-04-2021 12:45:00 9.1 C 77 % 5.29 C
1883 18-04-2021 12:50:00 9.2 C 76 % 5.2 C
1884 18-04-2021 12:55:00 9.3 C 76 % 5.29 C
1885 18-04-2021 13:00:00 9.5 C 75 % 5.3 C
1886 18-04-2021 13:05:00 9.7 C 75 % 5.49 C
1887 18-04-2021 13:10:00 9.8 C 74 % 5.39 C
1888 18-04-2021 13:15:00 10.1 C 75 % 5.88 C
1889 18-04-2021 13:20:00 10.3 C 74 % 5.88 C
1890 18-04-2021 13:25:00 10.6 C 73 % 5.97 C
1891 18-04-2021 13:30:00 10.7 C 72 % 5.87 C
1892 18-04-2021 13:35:00 10.8 C 72 % 5.96 C
1893 18-04-2021 13:40:00 11 C 72 % 6.15 C
1894 18-04-2021 13:45:00 11.1 C 71 % 6.05 C
1895 18-04-2021 13:50:00 11.2 C 71 % 6.14 C
1896 18-04-2021 13:55:00 11.3 C 71 % 6.24 C
1897 18-04-2021 14:00:00 11.5 C 71 % 6.43 C
1898 18-04-2021 14:05:00 11.7 C 70 % 6.42 C
1899 18-04-2021 14:10:00 11.8 C 70 % 6.51 C
1900 18-04-2021 14:15:00 11.9 C 68 % 6.19 C
Sensor: Nr:Datum:Temp:Feuchte:Taupunkt:
Aussen-T/F 1901 18-04-2021 14:20:00 11.8 C 66 % 5.66 C
1902 18-04-2021 14:25:00 11.8 C 67 % 5.88 C
1903 18-04-2021 14:30:00 11.9 C 67 % 5.98 C
1904 18-04-2021 14:35:00 12 C 67 % 6.07 C
1905 18-04-2021 14:40:00 12.1 C 66 % 5.95 C
1906 18-04-2021 14:45:00 12.2 C 67 % 6.26 C
1907 18-04-2021 14:50:00 12.4 C 65 % 6.01 C
1908 18-04-2021 14:55:00 12.4 C 65 % 6.01 C
1909 18-04-2021 15:00:00 12.3 C 65 % 5.92 C
1910 18-04-2021 15:05:00 12.2 C 65 % 5.82 C
1911 18-04-2021 15:10:00 12.1 C 66 % 5.95 C
1912 18-04-2021 15:15:00 12.1 C 67 % 6.17 C
1913 18-04-2021 15:20:00 12.1 C 66 % 5.95 C
1914 18-04-2021 15:25:00 12 C 68 % 6.29 C
1915 18-04-2021 15:30:00 12.1 C 67 % 6.17 C
1916 18-04-2021 15:35:00 12.1 C 67 % 6.17 C
1917 18-04-2021 15:40:00 12.2 C 67 % 6.26 C
1918 18-04-2021 15:45:00 12.2 C 67 % 6.26 C
1919 18-04-2021 15:50:00 12.3 C 68 % 6.57 C
1920 18-04-2021 15:55:00 12.5 C 68 % 6.76 C
1921 18-04-2021 16:00:00 12.6 C 66 % 6.42 C
1922 18-04-2021 16:05:00 12.7 C 67 % 6.74 C
1923 18-04-2021 16:10:00 12.7 C 67 % 6.74 C
1924 18-04-2021 16:15:00 12.7 C 67 % 6.74 C
1925 18-04-2021 16:20:00 12.7 C 66 % 6.52 C
Sensor: Nr:Datum:Temp:Feuchte:Taupunkt:
Aussen-T/F 1926 18-04-2021 16:25:00 12.7 C 67 % 6.74 C
1927 18-04-2021 16:30:00 12.6 C 67 % 6.64 C
1928 18-04-2021 16:35:00 12.6 C 68 % 6.86 C
1929 18-04-2021 16:40:00 12.6 C 68 % 6.86 C
1930 18-04-2021 16:45:00 12.5 C 67 % 6.55 C
1931 18-04-2021 16:50:00 12.5 C 68 % 6.76 C
1932 18-04-2021 16:55:00 12.5 C 69 % 6.97 C
1933 18-04-2021 17:00:00 12.6 C 68 % 6.86 C
1934 18-04-2021 17:05:00 12.6 C 67 % 6.64 C
1935 18-04-2021 17:10:00 12.7 C 67 % 6.74 C
1936 18-04-2021 17:15:00 12.7 C 68 % 6.95 C
1937 18-04-2021 17:20:00 12.7 C 68 % 6.95 C
1938 18-04-2021 17:25:00 12.7 C 67 % 6.74 C
1939 18-04-2021 17:30:00 12.8 C 68 % 7.05 C
1940 18-04-2021 17:35:00 12.9 C 67 % 6.93 C
1941 18-04-2021 17:40:00 12.9 C 68 % 7.14 C
1942 18-04-2021 17:45:00 13.3 C 68 % 7.53 C
1943 18-04-2021 17:50:00 13.6 C 64 % 6.93 C
1944 18-04-2021 17:55:00 13.4 C 65 % 6.96 C
1945 18-04-2021 18:00:00 13.2 C 64 % 6.55 C
1946 18-04-2021 18:05:00 12.9 C 65 % 6.49 C
1947 18-04-2021 18:10:00 12.8 C 66 % 6.61 C
1948 18-04-2021 18:15:00 12.7 C 66 % 6.52 C
1949 18-04-2021 18:20:00 12.7 C 66 % 6.52 C
1950 18-04-2021 18:25:00 12.7 C 67 % 6.74 C
Sensor: Nr:Datum:Temp:Feuchte:Taupunkt:
Aussen-T/F 1951 18-04-2021 18:30:00 12.6 C 66 % 6.42 C
1952 18-04-2021 18:35:00 12.6 C 67 % 6.64 C
1953 18-04-2021 18:40:00 12.5 C 68 % 6.76 C
1954 18-04-2021 18:45:00 12.5 C 67 % 6.55 C
1955 18-04-2021 18:50:00 12.4 C 67 % 6.45 C
1956 18-04-2021 18:55:00 12.4 C 68 % 6.67 C
1957 18-04-2021 19:00:00 12.3 C 67 % 6.36 C
1958 18-04-2021 19:05:00 12.3 C 70 % 6.99 C
1959 18-04-2021 19:10:00 12.2 C 72 % 7.31 C
1960 18-04-2021 19:15:00 12.1 C 73 % 7.41 C
1961 18-04-2021 19:20:00 11.9 C 73 % 7.22 C
1962 18-04-2021 19:25:00 11.8 C 74 % 7.32 C
1963 18-04-2021 19:30:00 11.7 C 75 % 7.42 C
1964 18-04-2021 19:35:00 11.6 C 73 % 6.93 C
1965 18-04-2021 19:40:00 11.4 C 75 % 7.13 C
1966 18-04-2021 19:45:00 11.4 C 77 % 7.52 C
1967 18-04-2021 19:50:00 11.3 C 77 % 7.42 C
1968 18-04-2021 19:55:00 11.2 C 79 % 7.7 C
1969 18-04-2021 20:00:00 11 C 80 % 7.69 C
1970 18-04-2021 20:05:00 10.8 C 81 % 7.67 C
1971 18-04-2021 20:10:00 10.7 C 81 % 7.58 C
1972 18-04-2021 20:15:00 10.6 C 81 % 7.48 C
1973 18-04-2021 20:20:00 10.4 C 81 % 7.28 C
1974 18-04-2021 20:25:00 10.3 C 81 % 7.19 C
1975 18-04-2021 20:30:00 10.3 C 81 % 7.19 C
Sensor: Nr:Datum:Temp:Feuchte:Taupunkt:
Aussen-T/F 1976 18-04-2021 20:35:00 10.2 C 82 % 7.27 C
1977 18-04-2021 20:40:00 10.1 C 82 % 7.17 C
1978 18-04-2021 20:45:00 10.1 C 82 % 7.17 C
1979 18-04-2021 20:50:00 9.9 C 82 % 6.98 C
1980 18-04-2021 20:55:00 9.9 C 83 % 7.15 C
1981 18-04-2021 21:00:00 9.8 C 83 % 7.05 C
1982 18-04-2021 21:05:00 9.7 C 83 % 6.96 C
1983 18-04-2021 21:10:00 9.7 C 83 % 6.96 C
1984 18-04-2021 21:15:00 9.5 C 84 % 6.94 C
1985 18-04-2021 21:20:00 9.4 C 84 % 6.84 C
1986 18-04-2021 21:25:00 9.3 C 84 % 6.74 C
1987 18-04-2021 21:30:00 9.2 C 84 % 6.64 C
1988 18-04-2021 21:35:00 9.2 C 85 % 6.81 C
1989 18-04-2021 21:40:00 9.1 C 85 % 6.72 C
1990 18-04-2021 21:45:00 9.1 C 86 % 6.89 C
1991 18-04-2021 21:50:00 9.1 C 86 % 6.89 C
1992 18-04-2021 21:55:00 9.1 C 86 % 6.89 C
1993 18-04-2021 22:00:00 9.1 C 87 % 7.05 C
1994 18-04-2021 22:05:00 9.1 C 87 % 7.05 C
1995 18-04-2021 22:10:00 9.1 C 87 % 7.05 C
1996 18-04-2021 22:15:00 9.1 C 87 % 7.05 C
1997 18-04-2021 22:20:00 9.1 C 87 % 7.05 C
1998 18-04-2021 22:25:00 9.1 C 87 % 7.05 C
1999 18-04-2021 22:30:00 9.1 C 87 % 7.05 C
2000 18-04-2021 22:35:00 9.1 C 87 % 7.05 C
Sensor: Nr:Datum:Temp:Feuchte:Taupunkt:
Aussen-T/F 2001 18-04-2021 22:40:00 9.1 C 87 % 7.05 C
2002 18-04-2021 22:45:00 9 C 87 % 6.96 C
2003 18-04-2021 22:50:00 8.9 C 87 % 6.86 C
2004 18-04-2021 22:55:00 8.8 C 86 % 6.59 C
2005 18-04-2021 23:00:00 8.6 C 86 % 6.39 C
2006 18-04-2021 23:05:00 8.4 C 86 % 6.2 C
2007 18-04-2021 23:10:00 8.3 C 86 % 6.1 C
2008 18-04-2021 23:15:00 8.2 C 87 % 6.17 C
2009 18-04-2021 23:20:00 8.1 C 87 % 6.07 C
2010 18-04-2021 23:25:00 8.1 C 88 % 6.24 C
2011 18-04-2021 23:30:00 8.1 C 88 % 6.24 C
2012 18-04-2021 23:35:00 8.1 C 89 % 6.4 C
2013 18-04-2021 23:40:00 8.1 C 89 % 6.4 C
2014 18-04-2021 23:45:00 8.2 C 89 % 6.5 C
2015 18-04-2021 23:50:00 8.2 C 89 % 6.5 C
2016 18-04-2021 23:55:00 8.2 C 89 % 6.5 C

Legende:
   Min
   Max


Maximal/Minimal-Werte vom 12.04.2021 - 18.04.2021

Sensor Min Max Avg
Temp
(Aussen-T/F)
-1.8 °C
14-04-2021  07:00:00
13.6 °C
18-04-2021  17:50:00
5.1 °C
Feuchte
(Aussen-T/F)
41 %
17-04-2021  14:35:00
96 %
12-04-2021  00:20:00
78.81 %
Taupunkt
(Aussen-T/F)
-3.25 C
14-04-2021  12:45:00
7.7 C
18-04-2021  19:55:00
1.42 C

Die Daten stammen von einer Davis Vantage Pro 2 Wetter-Station und werden unter Linux mit der Software wview2wettercgi und aufbereitet. Alle Angaben erfolgen ohne Gewähr für ihre Vollständigkeit oder Richtigkeit.
Kontakt: Rainer Krienke krienke@uni-koblenz.de . Meine Webseiten an der Uni Koblenz oder privat.
Version: $Revision: 0.78 $